<?xml version="1.0" encoding="UTF-8" standalone="no" ?>
<gpx xmlns="http://www.topografix.com/GPX/1/1" xmlns:xsi="http://www.w3.org/2001/XMLSchema-instance" xsi:schemaLocation="http://www.topografix.com/GPX/1/1 http://www.topografix.com/GPX/1/1/gpx.xsd" version="1.1" creator="VisuGPX - https://www.visugpx.com">
  <metadata>
    <name>Sortie cyclos groupe 3</name>
    <desc><![CDATA[Première sortie avec le groupe 3 des cyclos]]></desc>
  </metadata>
  <trk>
    <name><![CDATA[ACTIVE LOG]]></name>
    <trkseg>
      <trkpt lat="47.07256" lon="5.49209">
        <ele>208.743408</ele>
        <time>2011-04-05T11:47:25Z</time>
      </trkpt>
      <trkpt lat="47.07244" lon="5.49189">
        <ele>207.782104</ele>
        <time>2011-04-05T11:47:29Z</time>
      </trkpt>
      <trkpt lat="47.07234" lon="5.49173">
        <ele>208.743408</ele>
        <time>2011-04-05T11:47:32Z</time>
      </trkpt>
      <trkpt lat="47.07226" lon="5.49143">
        <ele>209.224121</ele>
        <time>2011-04-05T11:47:36Z</time>
      </trkpt>
      <trkpt lat="47.07215" lon="5.49109">
        <ele>207.782104</ele>
        <time>2011-04-05T11:47:41Z</time>
      </trkpt>
      <trkpt lat="47.07203" lon="5.49077">
        <ele>208.262817</ele>
        <time>2011-04-05T11:47:47Z</time>
      </trkpt>
      <trkpt lat="47.07198" lon="5.49059">
        <ele>208.743408</ele>
        <time>2011-04-05T11:47:50Z</time>
      </trkpt>
      <trkpt lat="47.07175" lon="5.49002">
        <ele>206.820679</ele>
        <time>2011-04-05T11:47:58Z</time>
      </trkpt>
      <trkpt lat="47.07171" lon="5.48969">
        <ele>206.820679</ele>
        <time>2011-04-05T11:48:03Z</time>
      </trkpt>
      <trkpt lat="47.07167" lon="5.48964">
        <ele>206.820679</ele>
        <time>2011-04-05T11:48:04Z</time>
      </trkpt>
      <trkpt lat="47.07107" lon="5.48874">
        <ele>207.301392</ele>
        <time>2011-04-05T11:48:19Z</time>
      </trkpt>
      <trkpt lat="47.0706" lon="5.48808">
        <ele>206.820679</ele>
        <time>2011-04-05T11:48:35Z</time>
      </trkpt>
      <trkpt lat="47.07054" lon="5.48802">
        <ele>206.820679</ele>
        <time>2011-04-05T11:48:37Z</time>
      </trkpt>
      <trkpt lat="47.07043" lon="5.48789">
        <ele>206.820679</ele>
        <time>2011-04-05T11:48:40Z</time>
      </trkpt>
      <trkpt lat="47.06995" lon="5.48735">
        <ele>205.859497</ele>
        <time>2011-04-05T11:48:52Z</time>
      </trkpt>
      <trkpt lat="47.06985" lon="5.48715">
        <ele>204.898071</ele>
        <time>2011-04-05T11:48:55Z</time>
      </trkpt>
      <trkpt lat="47.06967" lon="5.48706">
        <ele>205.378784</ele>
        <time>2011-04-05T11:48:59Z</time>
      </trkpt>
      <trkpt lat="47.06925" lon="5.487">
        <ele>206.340088</ele>
        <time>2011-04-05T11:49:08Z</time>
      </trkpt>
      <trkpt lat="47.06865" lon="5.48741">
        <ele>207.301392</ele>
        <time>2011-04-05T11:49:22Z</time>
      </trkpt>
      <trkpt lat="47.06782" lon="5.48823">
        <ele>208.743408</ele>
        <time>2011-04-05T11:49:44Z</time>
      </trkpt>
      <trkpt lat="47.06753" lon="5.4885">
        <ele>208.262817</ele>
        <time>2011-04-05T11:49:52Z</time>
      </trkpt>
      <trkpt lat="47.06712" lon="5.48839">
        <ele>207.782104</ele>
        <time>2011-04-05T11:50:02Z</time>
      </trkpt>
      <trkpt lat="47.06652" lon="5.48741">
        <ele>204.41748</ele>
        <time>2011-04-05T11:50:17Z</time>
      </trkpt>
      <trkpt lat="47.06641" lon="5.4868">
        <ele>203.456177</ele>
        <time>2011-04-05T11:50:23Z</time>
      </trkpt>
      <trkpt lat="47.06647" lon="5.48631">
        <ele>202.975464</ele>
        <time>2011-04-05T11:50:28Z</time>
      </trkpt>
      <trkpt lat="47.06657" lon="5.48599">
        <ele>203.93689</ele>
        <time>2011-04-05T11:50:32Z</time>
      </trkpt>
      <trkpt lat="47.06663" lon="5.48541">
        <ele>205.378784</ele>
        <time>2011-04-05T11:50:40Z</time>
      </trkpt>
      <trkpt lat="47.06667" lon="5.4849">
        <ele>205.378784</ele>
        <time>2011-04-05T11:50:48Z</time>
      </trkpt>
      <trkpt lat="47.06646" lon="5.48451">
        <ele>205.378784</ele>
        <time>2011-04-05T11:50:56Z</time>
      </trkpt>
      <trkpt lat="47.06641" lon="5.4845">
        <ele>205.378784</ele>
        <time>2011-04-05T11:50:57Z</time>
      </trkpt>
      <trkpt lat="47.06595" lon="5.48438">
        <ele>204.41748</ele>
        <time>2011-04-05T11:51:06Z</time>
      </trkpt>
      <trkpt lat="47.06568" lon="5.48397">
        <ele>203.93689</ele>
        <time>2011-04-05T11:51:13Z</time>
      </trkpt>
      <trkpt lat="47.06543" lon="5.48318">
        <ele>202.975464</ele>
        <time>2011-04-05T11:51:24Z</time>
      </trkpt>
      <trkpt lat="47.06528" lon="5.48299">
        <ele>202.975464</ele>
        <time>2011-04-05T11:51:28Z</time>
      </trkpt>
      <trkpt lat="47.06504" lon="5.48281">
        <ele>202.975464</ele>
        <time>2011-04-05T11:51:34Z</time>
      </trkpt>
      <trkpt lat="47.0649" lon="5.48276">
        <ele>202.975464</ele>
        <time>2011-04-05T11:51:37Z</time>
      </trkpt>
      <trkpt lat="47.06418" lon="5.48259">
        <ele>202.014282</ele>
        <time>2011-04-05T11:51:52Z</time>
      </trkpt>
      <trkpt lat="47.06336" lon="5.48222">
        <ele>199.130127</ele>
        <time>2011-04-05T11:52:05Z</time>
      </trkpt>
      <trkpt lat="47.06244" lon="5.48209">
        <ele>195.765625</ele>
        <time>2011-04-05T11:52:16Z</time>
      </trkpt>
      <trkpt lat="47.06172" lon="5.48242">
        <ele>195.284912</ele>
        <time>2011-04-05T11:52:27Z</time>
      </trkpt>
      <trkpt lat="47.06146" lon="5.48256">
        <ele>195.284912</ele>
        <time>2011-04-05T11:52:32Z</time>
      </trkpt>
      <trkpt lat="47.0607" lon="5.48294">
        <ele>193.843018</ele>
        <time>2011-04-05T11:52:45Z</time>
      </trkpt>
      <trkpt lat="47.05955" lon="5.48308">
        <ele>193.843018</ele>
        <time>2011-04-05T11:53:05Z</time>
      </trkpt>
      <trkpt lat="47.0587" lon="5.48352">
        <ele>193.843018</ele>
        <time>2011-04-05T11:53:22Z</time>
      </trkpt>
      <trkpt lat="47.05775" lon="5.48404">
        <ele>194.32373</ele>
        <time>2011-04-05T11:53:41Z</time>
      </trkpt>
      <trkpt lat="47.05733" lon="5.48386">
        <ele>193.843018</ele>
        <time>2011-04-05T11:53:50Z</time>
      </trkpt>
      <trkpt lat="47.05709" lon="5.48338">
        <ele>193.362305</ele>
        <time>2011-04-05T11:53:57Z</time>
      </trkpt>
      <trkpt lat="47.05689" lon="5.48311">
        <ele>193.362305</ele>
        <time>2011-04-05T11:54:02Z</time>
      </trkpt>
      <trkpt lat="47.05608" lon="5.4828">
        <ele>193.362305</ele>
        <time>2011-04-05T11:54:18Z</time>
      </trkpt>
      <trkpt lat="47.05556" lon="5.48288">
        <ele>193.843018</ele>
        <time>2011-04-05T11:54:28Z</time>
      </trkpt>
      <trkpt lat="47.05468" lon="5.48327">
        <ele>193.843018</ele>
        <time>2011-04-05T11:54:47Z</time>
      </trkpt>
      <trkpt lat="47.05379" lon="5.48334">
        <ele>192.881714</ele>
        <time>2011-04-05T11:55:03Z</time>
      </trkpt>
      <trkpt lat="47.0527" lon="5.48285">
        <ele>192.881714</ele>
        <time>2011-04-05T11:55:23Z</time>
      </trkpt>
      <trkpt lat="47.05185" lon="5.48197">
        <ele>192.881714</ele>
        <time>2011-04-05T11:55:42Z</time>
      </trkpt>
      <trkpt lat="47.05123" lon="5.48097">
        <ele>193.362305</ele>
        <time>2011-04-05T11:56:00Z</time>
      </trkpt>
      <trkpt lat="47.05083" lon="5.47993">
        <ele>192.401123</ele>
        <time>2011-04-05T11:56:16Z</time>
      </trkpt>
      <trkpt lat="47.05062" lon="5.47959">
        <ele>192.401123</ele>
        <time>2011-04-05T11:56:22Z</time>
      </trkpt>
      <trkpt lat="47.04955" lon="5.47874">
        <ele>191.920288</ele>
        <time>2011-04-05T11:56:44Z</time>
      </trkpt>
      <trkpt lat="47.04853" lon="5.47821">
        <ele>192.401123</ele>
        <time>2011-04-05T11:57:04Z</time>
      </trkpt>
      <trkpt lat="47.04734" lon="5.47787">
        <ele>192.401123</ele>
        <time>2011-04-05T11:57:26Z</time>
      </trkpt>
      <trkpt lat="47.04647" lon="5.47725">
        <ele>191.920288</ele>
        <time>2011-04-05T11:57:44Z</time>
      </trkpt>
      <trkpt lat="47.0457" lon="5.47644">
        <ele>191.920288</ele>
        <time>2011-04-05T11:58:02Z</time>
      </trkpt>
      <trkpt lat="47.04457" lon="5.47505">
        <ele>191.920288</ele>
        <time>2011-04-05T11:58:30Z</time>
      </trkpt>
      <trkpt lat="47.04347" lon="5.47414">
        <ele>191.439575</ele>
        <time>2011-04-05T11:58:54Z</time>
      </trkpt>
      <trkpt lat="47.04282" lon="5.47365">
        <ele>191.439575</ele>
        <time>2011-04-05T11:59:08Z</time>
      </trkpt>
      <trkpt lat="47.04277" lon="5.47319">
        <ele>192.401123</ele>
        <time>2011-04-05T11:59:16Z</time>
      </trkpt>
      <trkpt lat="47.04299" lon="5.47242">
        <ele>192.881714</ele>
        <time>2011-04-05T11:59:30Z</time>
      </trkpt>
      <trkpt lat="47.04302" lon="5.47197">
        <ele>191.920288</ele>
        <time>2011-04-05T11:59:37Z</time>
      </trkpt>
      <trkpt lat="47.0433" lon="5.47155">
        <ele>191.439575</ele>
        <time>2011-04-05T11:59:47Z</time>
      </trkpt>
      <trkpt lat="47.04334" lon="5.47154">
        <ele>191.439575</ele>
        <time>2011-04-05T11:59:48Z</time>
      </trkpt>
      <trkpt lat="47.04429" lon="5.47132">
        <ele>191.920288</ele>
        <time>2011-04-05T12:00:10Z</time>
      </trkpt>
      <trkpt lat="47.04547" lon="5.47094">
        <ele>191.439575</ele>
        <time>2011-04-05T12:00:36Z</time>
      </trkpt>
      <trkpt lat="47.04658" lon="5.47072">
        <ele>192.401123</ele>
        <time>2011-04-05T12:01:00Z</time>
      </trkpt>
      <trkpt lat="47.04663" lon="5.4707">
        <ele>192.401123</ele>
        <time>2011-04-05T12:01:01Z</time>
      </trkpt>
      <trkpt lat="47.04733" lon="5.47052">
        <ele>192.401123</ele>
        <time>2011-04-05T12:01:16Z</time>
      </trkpt>
      <trkpt lat="47.04839" lon="5.47012">
        <ele>192.401123</ele>
        <time>2011-04-05T12:01:37Z</time>
      </trkpt>
      <trkpt lat="47.04967" lon="5.46961">
        <ele>192.401123</ele>
        <time>2011-04-05T12:02:04Z</time>
      </trkpt>
      <trkpt lat="47.05036" lon="5.46878">
        <ele>192.401123</ele>
        <time>2011-04-05T12:02:22Z</time>
      </trkpt>
      <trkpt lat="47.05159" lon="5.46729">
        <ele>191.920288</ele>
        <time>2011-04-05T12:02:54Z</time>
      </trkpt>
      <trkpt lat="47.05273" lon="5.466">
        <ele>191.920288</ele>
        <time>2011-04-05T12:03:23Z</time>
      </trkpt>
      <trkpt lat="47.05356" lon="5.4653">
        <ele>193.362305</ele>
        <time>2011-04-05T12:03:42Z</time>
      </trkpt>
      <trkpt lat="47.0543" lon="5.4646">
        <ele>196.726929</ele>
        <time>2011-04-05T12:04:02Z</time>
      </trkpt>
      <trkpt lat="47.0551" lon="5.46379">
        <ele>196.246338</ele>
        <time>2011-04-05T12:04:26Z</time>
      </trkpt>
      <trkpt lat="47.05545" lon="5.46344">
        <ele>195.284912</ele>
        <time>2011-04-05T12:04:35Z</time>
      </trkpt>
      <trkpt lat="47.0557" lon="5.46333">
        <ele>194.804321</ele>
        <time>2011-04-05T12:04:41Z</time>
      </trkpt>
      <trkpt lat="47.05619" lon="5.4633">
        <ele>193.362305</ele>
        <time>2011-04-05T12:04:50Z</time>
      </trkpt>
      <trkpt lat="47.05716" lon="5.46337">
        <ele>192.401123</ele>
        <time>2011-04-05T12:05:11Z</time>
      </trkpt>
      <trkpt lat="47.05841" lon="5.46354">
        <ele>192.401123</ele>
        <time>2011-04-05T12:05:36Z</time>
      </trkpt>
      <trkpt lat="47.05865" lon="5.46346">
        <ele>192.401123</ele>
        <time>2011-04-05T12:05:41Z</time>
      </trkpt>
      <trkpt lat="47.05925" lon="5.46296">
        <ele>192.881714</ele>
        <time>2011-04-05T12:05:55Z</time>
      </trkpt>
      <trkpt lat="47.06033" lon="5.46215">
        <ele>193.843018</ele>
        <time>2011-04-05T12:06:21Z</time>
      </trkpt>
      <trkpt lat="47.06064" lon="5.46183">
        <ele>194.804321</ele>
        <time>2011-04-05T12:06:29Z</time>
      </trkpt>
      <trkpt lat="47.06092" lon="5.46125">
        <ele>197.688232</ele>
        <time>2011-04-05T12:06:44Z</time>
      </trkpt>
      <trkpt lat="47.06097" lon="5.46108">
        <ele>197.688232</ele>
        <time>2011-04-05T12:06:50Z</time>
      </trkpt>
      <trkpt lat="47.06077" lon="5.46077">
        <ele>194.32373</ele>
        <time>2011-04-05T12:07:00Z</time>
      </trkpt>
      <trkpt lat="47.06051" lon="5.4603">
        <ele>194.804321</ele>
        <time>2011-04-05T12:07:10Z</time>
      </trkpt>
      <trkpt lat="47.06044" lon="5.46011">
        <ele>194.32373</ele>
        <time>2011-04-05T12:07:13Z</time>
      </trkpt>
      <trkpt lat="47.05989" lon="5.45825">
        <ele>194.32373</ele>
        <time>2011-04-05T12:07:40Z</time>
      </trkpt>
      <trkpt lat="47.05936" lon="5.45664">
        <ele>194.804321</ele>
        <time>2011-04-05T12:08:04Z</time>
      </trkpt>
      <trkpt lat="47.05899" lon="5.45549">
        <ele>195.284912</ele>
        <time>2011-04-05T12:08:22Z</time>
      </trkpt>
      <trkpt lat="47.05855" lon="5.4541">
        <ele>195.284912</ele>
        <time>2011-04-05T12:08:42Z</time>
      </trkpt>
      <trkpt lat="47.05849" lon="5.45383">
        <ele>195.284912</ele>
        <time>2011-04-05T12:08:46Z</time>
      </trkpt>
      <trkpt lat="47.05839" lon="5.45338">
        <ele>195.284912</ele>
        <time>2011-04-05T12:08:52Z</time>
      </trkpt>
      <trkpt lat="47.05805" lon="5.4524">
        <ele>195.284912</ele>
        <time>2011-04-05T12:09:06Z</time>
      </trkpt>
      <trkpt lat="47.05758" lon="5.45102">
        <ele>195.284912</ele>
        <time>2011-04-05T12:09:26Z</time>
      </trkpt>
      <trkpt lat="47.05702" lon="5.44918">
        <ele>195.284912</ele>
        <time>2011-04-05T12:09:52Z</time>
      </trkpt>
      <trkpt lat="47.05652" lon="5.44764">
        <ele>195.284912</ele>
        <time>2011-04-05T12:10:15Z</time>
      </trkpt>
      <trkpt lat="47.05601" lon="5.44594">
        <ele>194.804321</ele>
        <time>2011-04-05T12:10:39Z</time>
      </trkpt>
      <trkpt lat="47.05545" lon="5.44409">
        <ele>194.804321</ele>
        <time>2011-04-05T12:11:05Z</time>
      </trkpt>
      <trkpt lat="47.05546" lon="5.44381">
        <ele>195.284912</ele>
        <time>2011-04-05T12:11:09Z</time>
      </trkpt>
      <trkpt lat="47.05552" lon="5.44354">
        <ele>195.284912</ele>
        <time>2011-04-05T12:11:13Z</time>
      </trkpt>
      <trkpt lat="47.05604" lon="5.44279">
        <ele>195.284912</ele>
        <time>2011-04-05T12:11:27Z</time>
      </trkpt>
      <trkpt lat="47.05617" lon="5.44266">
        <ele>195.284912</ele>
        <time>2011-04-05T12:11:30Z</time>
      </trkpt>
      <trkpt lat="47.05631" lon="5.44239">
        <ele>194.32373</ele>
        <time>2011-04-05T12:11:35Z</time>
      </trkpt>
      <trkpt lat="47.05646" lon="5.44209">
        <ele>193.362305</ele>
        <time>2011-04-05T12:11:39Z</time>
      </trkpt>
      <trkpt lat="47.05672" lon="5.44203">
        <ele>193.843018</ele>
        <time>2011-04-05T12:11:44Z</time>
      </trkpt>
      <trkpt lat="47.05746" lon="5.4411">
        <ele>192.881714</ele>
        <time>2011-04-05T12:12:04Z</time>
      </trkpt>
      <trkpt lat="47.05865" lon="5.43954">
        <ele>192.881714</ele>
        <time>2011-04-05T12:12:34Z</time>
      </trkpt>
      <trkpt lat="47.0593" lon="5.4386">
        <ele>192.881714</ele>
        <time>2011-04-05T12:12:51Z</time>
      </trkpt>
      <trkpt lat="47.05973" lon="5.43767">
        <ele>193.362305</ele>
        <time>2011-04-05T12:13:06Z</time>
      </trkpt>
      <trkpt lat="47.05975" lon="5.43762">
        <ele>193.362305</ele>
        <time>2011-04-05T12:13:07Z</time>
      </trkpt>
      <trkpt lat="47.05977" lon="5.43745">
        <ele>193.362305</ele>
        <time>2011-04-05T12:13:10Z</time>
      </trkpt>
      <trkpt lat="47.05969" lon="5.4365">
        <ele>193.843018</ele>
        <time>2011-04-05T12:13:25Z</time>
      </trkpt>
      <trkpt lat="47.05967" lon="5.43554">
        <ele>192.401123</ele>
        <time>2011-04-05T12:13:37Z</time>
      </trkpt>
      <trkpt lat="47.05967" lon="5.43422">
        <ele>192.401123</ele>
        <time>2011-04-05T12:13:53Z</time>
      </trkpt>
      <trkpt lat="47.05967" lon="5.43233">
        <ele>192.401123</ele>
        <time>2011-04-05T12:14:17Z</time>
      </trkpt>
      <trkpt lat="47.05966" lon="5.43063">
        <ele>192.401123</ele>
        <time>2011-04-05T12:14:39Z</time>
      </trkpt>
      <trkpt lat="47.05966" lon="5.4301">
        <ele>192.401123</ele>
        <time>2011-04-05T12:14:46Z</time>
      </trkpt>
      <trkpt lat="47.0596" lon="5.42974">
        <ele>192.401123</ele>
        <time>2011-04-05T12:14:51Z</time>
      </trkpt>
      <trkpt lat="47.05958" lon="5.42956">
        <ele>192.401123</ele>
        <time>2011-04-05T12:14:54Z</time>
      </trkpt>
      <trkpt lat="47.05964" lon="5.42927">
        <ele>192.401123</ele>
        <time>2011-04-05T12:14:59Z</time>
      </trkpt>
      <trkpt lat="47.05962" lon="5.42815">
        <ele>192.881714</ele>
        <time>2011-04-05T12:15:14Z</time>
      </trkpt>
      <trkpt lat="47.05965" lon="5.42693">
        <ele>195.284912</ele>
        <time>2011-04-05T12:15:30Z</time>
      </trkpt>
      <trkpt lat="47.05965" lon="5.4269">
        <ele>195.765625</ele>
        <time>2011-04-05T12:15:31Z</time>
      </trkpt>
      <trkpt lat="47.05963" lon="5.42679">
        <ele>196.246338</ele>
        <time>2011-04-05T12:15:35Z</time>
      </trkpt>
      <trkpt lat="47.05946" lon="5.42675">
        <ele>196.246338</ele>
        <time>2011-04-05T12:15:43Z</time>
      </trkpt>
      <trkpt lat="47.05943" lon="5.42618">
        <ele>193.362305</ele>
        <time>2011-04-05T12:15:51Z</time>
      </trkpt>
      <trkpt lat="47.05943" lon="5.42481">
        <ele>193.362305</ele>
        <time>2011-04-05T12:16:09Z</time>
      </trkpt>
      <trkpt lat="47.05944" lon="5.42329">
        <ele>193.362305</ele>
        <time>2011-04-05T12:16:29Z</time>
      </trkpt>
      <trkpt lat="47.05945" lon="5.42168">
        <ele>193.362305</ele>
        <time>2011-04-05T12:16:50Z</time>
      </trkpt>
      <trkpt lat="47.05943" lon="5.41981">
        <ele>193.362305</ele>
        <time>2011-04-05T12:17:15Z</time>
      </trkpt>
      <trkpt lat="47.05942" lon="5.41793">
        <ele>193.843018</ele>
        <time>2011-04-05T12:17:41Z</time>
      </trkpt>
      <trkpt lat="47.05943" lon="5.41607">
        <ele>193.362305</ele>
        <time>2011-04-05T12:18:07Z</time>
      </trkpt>
      <trkpt lat="47.05941" lon="5.41429">
        <ele>193.843018</ele>
        <time>2011-04-05T12:18:31Z</time>
      </trkpt>
      <trkpt lat="47.05938" lon="5.41306">
        <ele>194.32373</ele>
        <time>2011-04-05T12:18:49Z</time>
      </trkpt>
      <trkpt lat="47.05939" lon="5.41295">
        <ele>194.804321</ele>
        <time>2011-04-05T12:18:53Z</time>
      </trkpt>
      <trkpt lat="47.05937" lon="5.41281">
        <ele>195.284912</ele>
        <time>2011-04-05T12:19:09Z</time>
      </trkpt>
      <trkpt lat="47.05908" lon="5.41266">
        <ele>194.32373</ele>
        <time>2011-04-05T12:19:19Z</time>
      </trkpt>
      <trkpt lat="47.05862" lon="5.41263">
        <ele>192.881714</ele>
        <time>2011-04-05T12:19:26Z</time>
      </trkpt>
      <trkpt lat="47.05816" lon="5.41293">
        <ele>192.401123</ele>
        <time>2011-04-05T12:19:34Z</time>
      </trkpt>
      <trkpt lat="47.05808" lon="5.41306">
        <ele>192.401123</ele>
        <time>2011-04-05T12:19:36Z</time>
      </trkpt>
      <trkpt lat="47.05774" lon="5.41361">
        <ele>191.920288</ele>
        <time>2011-04-05T12:19:44Z</time>
      </trkpt>
      <trkpt lat="47.05747" lon="5.41381">
        <ele>192.401123</ele>
        <time>2011-04-05T12:19:49Z</time>
      </trkpt>
      <trkpt lat="47.05729" lon="5.41385">
        <ele>192.401123</ele>
        <time>2011-04-05T12:19:52Z</time>
      </trkpt>
      <trkpt lat="47.05641" lon="5.41384">
        <ele>192.401123</ele>
        <time>2011-04-05T12:20:07Z</time>
      </trkpt>
      <trkpt lat="47.05566" lon="5.41383">
        <ele>191.920288</ele>
        <time>2011-04-05T12:20:20Z</time>
      </trkpt>
      <trkpt lat="47.0551" lon="5.41386">
        <ele>191.920288</ele>
        <time>2011-04-05T12:20:29Z</time>
      </trkpt>
      <trkpt lat="47.0544" lon="5.41387">
        <ele>191.920288</ele>
        <time>2011-04-05T12:20:41Z</time>
      </trkpt>
      <trkpt lat="47.05392" lon="5.41389">
        <ele>192.881714</ele>
        <time>2011-04-05T12:20:49Z</time>
      </trkpt>
      <trkpt lat="47.053" lon="5.41387">
        <ele>192.401123</ele>
        <time>2011-04-05T12:21:05Z</time>
      </trkpt>
      <trkpt lat="47.05271" lon="5.41385">
        <ele>192.401123</ele>
        <time>2011-04-05T12:21:10Z</time>
      </trkpt>
      <trkpt lat="47.05247" lon="5.41365">
        <ele>192.401123</ele>
        <time>2011-04-05T12:21:15Z</time>
      </trkpt>
      <trkpt lat="47.05224" lon="5.41374">
        <ele>191.920288</ele>
        <time>2011-04-05T12:21:20Z</time>
      </trkpt>
      <trkpt lat="47.05217" lon="5.41381">
        <ele>191.920288</ele>
        <time>2011-04-05T12:21:22Z</time>
      </trkpt>
      <trkpt lat="47.05124" lon="5.41387">
        <ele>191.920288</ele>
        <time>2011-04-05T12:21:40Z</time>
      </trkpt>
      <trkpt lat="47.05077" lon="5.41388">
        <ele>191.920288</ele>
        <time>2011-04-05T12:21:49Z</time>
      </trkpt>
      <trkpt lat="47.04993" lon="5.41385">
        <ele>191.920288</ele>
        <time>2011-04-05T12:22:05Z</time>
      </trkpt>
      <trkpt lat="47.04893" lon="5.41387">
        <ele>191.920288</ele>
        <time>2011-04-05T12:22:24Z</time>
      </trkpt>
      <trkpt lat="47.04872" lon="5.41383">
        <ele>191.920288</ele>
        <time>2011-04-05T12:22:33Z</time>
      </trkpt>
      <trkpt lat="47.04856" lon="5.41369">
        <ele>192.401123</ele>
        <time>2011-04-05T12:22:39Z</time>
      </trkpt>
      <trkpt lat="47.04838" lon="5.41382">
        <ele>192.401123</ele>
        <time>2011-04-05T12:22:44Z</time>
      </trkpt>
      <trkpt lat="47.04789" lon="5.41382">
        <ele>192.401123</ele>
        <time>2011-04-05T12:22:54Z</time>
      </trkpt>
      <trkpt lat="47.0477" lon="5.41367">
        <ele>192.401123</ele>
        <time>2011-04-05T12:22:59Z</time>
      </trkpt>
      <trkpt lat="47.04748" lon="5.41369">
        <ele>192.401123</ele>
        <time>2011-04-05T12:23:04Z</time>
      </trkpt>
      <trkpt lat="47.04682" lon="5.4135">
        <ele>192.401123</ele>
        <time>2011-04-05T12:23:18Z</time>
      </trkpt>
      <trkpt lat="47.04602" lon="5.41322">
        <ele>192.881714</ele>
        <time>2011-04-05T12:23:35Z</time>
      </trkpt>
      <trkpt lat="47.04519" lon="5.41294">
        <ele>192.401123</ele>
        <time>2011-04-05T12:23:53Z</time>
      </trkpt>
      <trkpt lat="47.04457" lon="5.41277">
        <ele>192.401123</ele>
        <time>2011-04-05T12:24:06Z</time>
      </trkpt>
      <trkpt lat="47.04379" lon="5.4127">
        <ele>193.362305</ele>
        <time>2011-04-05T12:24:22Z</time>
      </trkpt>
      <trkpt lat="47.04359" lon="5.41268">
        <ele>193.362305</ele>
        <time>2011-04-05T12:24:26Z</time>
      </trkpt>
      <trkpt lat="47.04345" lon="5.4126">
        <ele>192.881714</ele>
        <time>2011-04-05T12:24:30Z</time>
      </trkpt>
      <trkpt lat="47.04317" lon="5.41254">
        <ele>192.881714</ele>
        <time>2011-04-05T12:24:39Z</time>
      </trkpt>
      <trkpt lat="47.04277" lon="5.41267">
        <ele>192.881714</ele>
        <time>2011-04-05T12:24:51Z</time>
      </trkpt>
      <trkpt lat="47.04203" lon="5.41265">
        <ele>193.362305</ele>
        <time>2011-04-05T12:25:08Z</time>
      </trkpt>
      <trkpt lat="47.04165" lon="5.41262">
        <ele>193.362305</ele>
        <time>2011-04-05T12:25:16Z</time>
      </trkpt>
      <trkpt lat="47.04099" lon="5.41259">
        <ele>193.362305</ele>
        <time>2011-04-05T12:25:31Z</time>
      </trkpt>
      <trkpt lat="47.04079" lon="5.41254">
        <ele>192.881714</ele>
        <time>2011-04-05T12:25:35Z</time>
      </trkpt>
      <trkpt lat="47.0401" lon="5.41257">
        <ele>192.881714</ele>
        <time>2011-04-05T12:25:48Z</time>
      </trkpt>
      <trkpt lat="47.03929" lon="5.41259">
        <ele>192.881714</ele>
        <time>2011-04-05T12:26:04Z</time>
      </trkpt>
      <trkpt lat="47.03907" lon="5.41258">
        <ele>192.881714</ele>
        <time>2011-04-05T12:26:08Z</time>
      </trkpt>
      <trkpt lat="47.03853" lon="5.4127">
        <ele>192.881714</ele>
        <time>2011-04-05T12:26:22Z</time>
      </trkpt>
      <trkpt lat="47.03852" lon="5.41272">
        <ele>192.881714</ele>
        <time>2011-04-05T12:26:33Z</time>
      </trkpt>
      <trkpt lat="47.03854" lon="5.41287">
        <ele>193.362305</ele>
        <time>2011-04-05T12:26:38Z</time>
      </trkpt>
      <trkpt lat="47.03858" lon="5.41294">
        <ele>192.881714</ele>
        <time>2011-04-05T12:26:40Z</time>
      </trkpt>
      <trkpt lat="47.03847" lon="5.41314">
        <ele>192.881714</ele>
        <time>2011-04-05T12:26:46Z</time>
      </trkpt>
      <trkpt lat="47.03817" lon="5.41329">
        <ele>192.881714</ele>
        <time>2011-04-05T12:26:54Z</time>
      </trkpt>
      <trkpt lat="47.03777" lon="5.41326">
        <ele>192.881714</ele>
        <time>2011-04-05T12:27:03Z</time>
      </trkpt>
      <trkpt lat="47.03758" lon="5.41322">
        <ele>192.881714</ele>
        <time>2011-04-05T12:27:07Z</time>
      </trkpt>
      <trkpt lat="47.037" lon="5.41257">
        <ele>193.362305</ele>
        <time>2011-04-05T12:27:22Z</time>
      </trkpt>
      <trkpt lat="47.03599" lon="5.4111">
        <ele>192.881714</ele>
        <time>2011-04-05T12:27:50Z</time>
      </trkpt>
      <trkpt lat="47.03568" lon="5.41039">
        <ele>193.362305</ele>
        <time>2011-04-05T12:28:01Z</time>
      </trkpt>
      <trkpt lat="47.03563" lon="5.41019">
        <ele>192.881714</ele>
        <time>2011-04-05T12:28:04Z</time>
      </trkpt>
      <trkpt lat="47.03544" lon="5.41012">
        <ele>192.401123</ele>
        <time>2011-04-05T12:28:09Z</time>
      </trkpt>
      <trkpt lat="47.03518" lon="5.40996">
        <ele>192.881714</ele>
        <time>2011-04-05T12:28:15Z</time>
      </trkpt>
      <trkpt lat="47.0343" lon="5.40867">
        <ele>192.881714</ele>
        <time>2011-04-05T12:28:39Z</time>
      </trkpt>
      <trkpt lat="47.03402" lon="5.40835">
        <ele>192.401123</ele>
        <time>2011-04-05T12:28:46Z</time>
      </trkpt>
      <trkpt lat="47.0339" lon="5.40824">
        <ele>192.401123</ele>
        <time>2011-04-05T12:28:49Z</time>
      </trkpt>
      <trkpt lat="47.03369" lon="5.40804">
        <ele>192.401123</ele>
        <time>2011-04-05T12:28:54Z</time>
      </trkpt>
      <trkpt lat="47.03354" lon="5.40783">
        <ele>192.881714</ele>
        <time>2011-04-05T12:28:58Z</time>
      </trkpt>
      <trkpt lat="47.03325" lon="5.4079">
        <ele>192.881714</ele>
        <time>2011-04-05T12:29:05Z</time>
      </trkpt>
      <trkpt lat="47.03322" lon="5.40795">
        <ele>192.881714</ele>
        <time>2011-04-05T12:29:06Z</time>
      </trkpt>
      <trkpt lat="47.03291" lon="5.40796">
        <ele>193.843018</ele>
        <time>2011-04-05T12:29:14Z</time>
      </trkpt>
      <trkpt lat="47.03252" lon="5.40732">
        <ele>197.20752</ele>
        <time>2011-04-05T12:29:28Z</time>
      </trkpt>
      <trkpt lat="47.03196" lon="5.40706">
        <ele>199.130127</ele>
        <time>2011-04-05T12:29:43Z</time>
      </trkpt>
      <trkpt lat="47.03137" lon="5.40723">
        <ele>199.130127</ele>
        <time>2011-04-05T12:29:58Z</time>
      </trkpt>
      <trkpt lat="47.03118" lon="5.40731">
        <ele>198.168945</ele>
        <time>2011-04-05T12:30:02Z</time>
      </trkpt>
      <trkpt lat="47.03104" lon="5.40742">
        <ele>197.688232</ele>
        <time>2011-04-05T12:30:05Z</time>
      </trkpt>
      <trkpt lat="47.03076" lon="5.4078">
        <ele>196.726929</ele>
        <time>2011-04-05T12:30:11Z</time>
      </trkpt>
      <trkpt lat="47.03048" lon="5.40771">
        <ele>195.284912</ele>
        <time>2011-04-05T12:30:17Z</time>
      </trkpt>
      <trkpt lat="47.03065" lon="5.40739">
        <ele>194.32373</ele>
        <time>2011-04-05T12:30:21Z</time>
      </trkpt>
      <trkpt lat="47.03103" lon="5.40713">
        <ele>193.362305</ele>
        <time>2011-04-05T12:30:28Z</time>
      </trkpt>
      <trkpt lat="47.0312" lon="5.40681">
        <ele>193.362305</ele>
        <time>2011-04-05T12:30:34Z</time>
      </trkpt>
      <trkpt lat="47.03121" lon="5.40644">
        <ele>192.881714</ele>
        <time>2011-04-05T12:30:40Z</time>
      </trkpt>
      <trkpt lat="47.03072" lon="5.40538">
        <ele>192.401123</ele>
        <time>2011-04-05T12:30:59Z</time>
      </trkpt>
      <trkpt lat="47.02981" lon="5.40473">
        <ele>191.920288</ele>
        <time>2011-04-05T12:31:19Z</time>
      </trkpt>
      <trkpt lat="47.02822" lon="5.40365">
        <ele>191.920288</ele>
        <time>2011-04-05T12:31:52Z</time>
      </trkpt>
      <trkpt lat="47.02759" lon="5.40323">
        <ele>191.920288</ele>
        <time>2011-04-05T12:32:05Z</time>
      </trkpt>
      <trkpt lat="47.02744" lon="5.40316">
        <ele>191.920288</ele>
        <time>2011-04-05T12:32:08Z</time>
      </trkpt>
      <trkpt lat="47.02658" lon="5.40252">
        <ele>191.920288</ele>
        <time>2011-04-05T12:32:28Z</time>
      </trkpt>
      <trkpt lat="47.02525" lon="5.40134">
        <ele>192.401123</ele>
        <time>2011-04-05T12:32:57Z</time>
      </trkpt>
      <trkpt lat="47.02457" lon="5.40071">
        <ele>192.401123</ele>
        <time>2011-04-05T12:33:13Z</time>
      </trkpt>
      <trkpt lat="47.02341" lon="5.39958">
        <ele>192.401123</ele>
        <time>2011-04-05T12:33:39Z</time>
      </trkpt>
      <trkpt lat="47.02232" lon="5.39853">
        <ele>192.401123</ele>
        <time>2011-04-05T12:34:03Z</time>
      </trkpt>
      <trkpt lat="47.02154" lon="5.39776">
        <ele>191.920288</ele>
        <time>2011-04-05T12:34:21Z</time>
      </trkpt>
      <trkpt lat="47.02097" lon="5.39705">
        <ele>191.439575</ele>
        <time>2011-04-05T12:34:39Z</time>
      </trkpt>
      <trkpt lat="47.01992" lon="5.39596">
        <ele>190.958984</ele>
        <time>2011-04-05T12:35:04Z</time>
      </trkpt>
      <trkpt lat="47.01873" lon="5.39483">
        <ele>190.958984</ele>
        <time>2011-04-05T12:35:30Z</time>
      </trkpt>
      <trkpt lat="47.01744" lon="5.39372">
        <ele>190.478394</ele>
        <time>2011-04-05T12:35:57Z</time>
      </trkpt>
      <trkpt lat="47.01609" lon="5.3924">
        <ele>190.478394</ele>
        <time>2011-04-05T12:36:25Z</time>
      </trkpt>
      <trkpt lat="47.0152" lon="5.39169">
        <ele>190.958984</ele>
        <time>2011-04-05T12:36:44Z</time>
      </trkpt>
      <trkpt lat="47.01404" lon="5.39079">
        <ele>190.478394</ele>
        <time>2011-04-05T12:37:09Z</time>
      </trkpt>
      <trkpt lat="47.01251" lon="5.3896">
        <ele>189.997681</ele>
        <time>2011-04-05T12:37:41Z</time>
      </trkpt>
      <trkpt lat="47.01148" lon="5.3891">
        <ele>189.997681</ele>
        <time>2011-04-05T12:38:00Z</time>
      </trkpt>
      <trkpt lat="47.01099" lon="5.38894">
        <ele>189.516968</ele>
        <time>2011-04-05T12:38:10Z</time>
      </trkpt>
      <trkpt lat="47.01086" lon="5.3889">
        <ele>189.516968</ele>
        <time>2011-04-05T12:38:13Z</time>
      </trkpt>
      <trkpt lat="47.01052" lon="5.38868">
        <ele>188.555786</ele>
        <time>2011-04-05T12:38:21Z</time>
      </trkpt>
      <trkpt lat="47.01032" lon="5.38848">
        <ele>189.036377</ele>
        <time>2011-04-05T12:38:26Z</time>
      </trkpt>
      <trkpt lat="47.0097" lon="5.38827">
        <ele>189.036377</ele>
        <time>2011-04-05T12:38:39Z</time>
      </trkpt>
      <trkpt lat="47.00948" lon="5.38833">
        <ele>188.555786</ele>
        <time>2011-04-05T12:38:43Z</time>
      </trkpt>
      <trkpt lat="47.00926" lon="5.38813">
        <ele>189.036377</ele>
        <time>2011-04-05T12:38:49Z</time>
      </trkpt>
      <trkpt lat="47.00935" lon="5.38704">
        <ele>189.997681</ele>
        <time>2011-04-05T12:39:06Z</time>
      </trkpt>
      <trkpt lat="47.00941" lon="5.38607">
        <ele>189.036377</ele>
        <time>2011-04-05T12:39:22Z</time>
      </trkpt>
      <trkpt lat="47.00944" lon="5.38497">
        <ele>189.516968</ele>
        <time>2011-04-05T12:39:40Z</time>
      </trkpt>
      <trkpt lat="47.00941" lon="5.38355">
        <ele>189.516968</ele>
        <time>2011-04-05T12:40:00Z</time>
      </trkpt>
      <trkpt lat="47.00935" lon="5.38298">
        <ele>189.516968</ele>
        <time>2011-04-05T12:40:08Z</time>
      </trkpt>
      <trkpt lat="47.00935" lon="5.38254">
        <ele>188.555786</ele>
        <time>2011-04-05T12:40:14Z</time>
      </trkpt>
      <trkpt lat="47.00925" lon="5.38224">
        <ele>189.516968</ele>
        <time>2011-04-05T12:40:19Z</time>
      </trkpt>
      <trkpt lat="47.00858" lon="5.38112">
        <ele>189.036377</ele>
        <time>2011-04-05T12:40:40Z</time>
      </trkpt>
      <trkpt lat="47.00801" lon="5.38017">
        <ele>189.036377</ele>
        <time>2011-04-05T12:40:57Z</time>
      </trkpt>
      <trkpt lat="47.00771" lon="5.37973">
        <ele>189.036377</ele>
        <time>2011-04-05T12:41:05Z</time>
      </trkpt>
      <trkpt lat="47.00761" lon="5.37946">
        <ele>189.516968</ele>
        <time>2011-04-05T12:41:09Z</time>
      </trkpt>
      <trkpt lat="47.00744" lon="5.37806">
        <ele>188.555786</ele>
        <time>2011-04-05T12:41:27Z</time>
      </trkpt>
      <trkpt lat="47.00733" lon="5.37751">
        <ele>188.555786</ele>
        <time>2011-04-05T12:41:37Z</time>
      </trkpt>
      <trkpt lat="47.00673" lon="5.37743">
        <ele>188.555786</ele>
        <time>2011-04-05T12:41:54Z</time>
      </trkpt>
      <trkpt lat="47.00582" lon="5.37742">
        <ele>189.036377</ele>
        <time>2011-04-05T12:42:13Z</time>
      </trkpt>
      <trkpt lat="47.00467" lon="5.37725">
        <ele>188.555786</ele>
        <time>2011-04-05T12:42:35Z</time>
      </trkpt>
      <trkpt lat="47.00456" lon="5.37723">
        <ele>188.555786</ele>
        <time>2011-04-05T12:42:37Z</time>
      </trkpt>
      <trkpt lat="47.00369" lon="5.37709">
        <ele>188.555786</ele>
        <time>2011-04-05T12:42:55Z</time>
      </trkpt>
      <trkpt lat="47.00283" lon="5.37666">
        <ele>188.075073</ele>
        <time>2011-04-05T12:43:12Z</time>
      </trkpt>
      <trkpt lat="47.00256" lon="5.37648">
        <ele>188.555786</ele>
        <time>2011-04-05T12:43:18Z</time>
      </trkpt>
      <trkpt lat="47.00242" lon="5.3764">
        <ele>188.555786</ele>
        <time>2011-04-05T12:43:21Z</time>
      </trkpt>
      <trkpt lat="47.00201" lon="5.37608">
        <ele>188.555786</ele>
        <time>2011-04-05T12:43:30Z</time>
      </trkpt>
      <trkpt lat="47.00097" lon="5.37534">
        <ele>188.555786</ele>
        <time>2011-04-05T12:43:51Z</time>
      </trkpt>
      <trkpt lat="46.99996" lon="5.37462">
        <ele>187.59436</ele>
        <time>2011-04-05T12:44:11Z</time>
      </trkpt>
      <trkpt lat="46.99907" lon="5.37397">
        <ele>187.59436</ele>
        <time>2011-04-05T12:44:30Z</time>
      </trkpt>
      <trkpt lat="46.99788" lon="5.37307">
        <ele>187.11377</ele>
        <time>2011-04-05T12:44:55Z</time>
      </trkpt>
      <trkpt lat="46.99708" lon="5.37245">
        <ele>187.11377</ele>
        <time>2011-04-05T12:45:11Z</time>
      </trkpt>
      <trkpt lat="46.99626" lon="5.37167">
        <ele>187.59436</ele>
        <time>2011-04-05T12:45:29Z</time>
      </trkpt>
      <trkpt lat="46.99621" lon="5.37163">
        <ele>187.11377</ele>
        <time>2011-04-05T12:45:30Z</time>
      </trkpt>
      <trkpt lat="46.99514" lon="5.37096">
        <ele>187.11377</ele>
        <time>2011-04-05T12:45:51Z</time>
      </trkpt>
      <trkpt lat="46.99447" lon="5.3706">
        <ele>186.633179</ele>
        <time>2011-04-05T12:46:02Z</time>
      </trkpt>
      <trkpt lat="46.99368" lon="5.37062">
        <ele>186.633179</ele>
        <time>2011-04-05T12:46:16Z</time>
      </trkpt>
      <trkpt lat="46.99341" lon="5.37075">
        <ele>186.633179</ele>
        <time>2011-04-05T12:46:21Z</time>
      </trkpt>
      <trkpt lat="46.99317" lon="5.37079">
        <ele>186.152466</ele>
        <time>2011-04-05T12:46:25Z</time>
      </trkpt>
      <trkpt lat="46.9928" lon="5.3705">
        <ele>186.152466</ele>
        <time>2011-04-05T12:46:32Z</time>
      </trkpt>
      <trkpt lat="46.99265" lon="5.3701">
        <ele>185.671753</ele>
        <time>2011-04-05T12:46:37Z</time>
      </trkpt>
      <trkpt lat="46.99257" lon="5.3699">
        <ele>185.671753</ele>
        <time>2011-04-05T12:46:40Z</time>
      </trkpt>
      <trkpt lat="46.99252" lon="5.36949">
        <ele>185.191162</ele>
        <time>2011-04-05T12:46:46Z</time>
      </trkpt>
      <trkpt lat="46.99255" lon="5.36924">
        <ele>185.191162</ele>
        <time>2011-04-05T12:46:50Z</time>
      </trkpt>
      <trkpt lat="46.99246" lon="5.36853">
        <ele>185.671753</ele>
        <time>2011-04-05T12:47:04Z</time>
      </trkpt>
      <trkpt lat="46.99189" lon="5.36756">
        <ele>184.710571</ele>
        <time>2011-04-05T12:47:24Z</time>
      </trkpt>
      <trkpt lat="46.99176" lon="5.36731">
        <ele>183.749023</ele>
        <time>2011-04-05T12:47:34Z</time>
      </trkpt>
      <trkpt lat="46.99178" lon="5.36728">
        <ele>183.749023</ele>
        <time>2011-04-05T12:47:51Z</time>
      </trkpt>
      <trkpt lat="46.99179" lon="5.36728">
        <ele>183.268433</ele>
        <time>2011-04-05T12:48:26Z</time>
      </trkpt>
      <trkpt lat="46.9919" lon="5.36719">
        <ele>183.749023</ele>
        <time>2011-04-05T12:48:33Z</time>
      </trkpt>
      <trkpt lat="46.99241" lon="5.3669">
        <ele>184.710571</ele>
        <time>2011-04-05T12:48:48Z</time>
      </trkpt>
      <trkpt lat="46.99279" lon="5.36653">
        <ele>184.229858</ele>
        <time>2011-04-05T12:49:00Z</time>
      </trkpt>
      <trkpt lat="46.99264" lon="5.36567">
        <ele>183.749023</ele>
        <time>2011-04-05T12:49:15Z</time>
      </trkpt>
      <trkpt lat="46.99251" lon="5.36437">
        <ele>184.229858</ele>
        <time>2011-04-05T12:49:34Z</time>
      </trkpt>
      <trkpt lat="46.99246" lon="5.36355">
        <ele>183.749023</ele>
        <time>2011-04-05T12:49:45Z</time>
      </trkpt>
      <trkpt lat="46.99241" lon="5.36206">
        <ele>183.268433</ele>
        <time>2011-04-05T12:50:05Z</time>
      </trkpt>
      <trkpt lat="46.99252" lon="5.36065">
        <ele>183.749023</ele>
        <time>2011-04-05T12:50:24Z</time>
      </trkpt>
      <trkpt lat="46.99285" lon="5.35896">
        <ele>183.268433</ele>
        <time>2011-04-05T12:50:47Z</time>
      </trkpt>
      <trkpt lat="46.9931" lon="5.35692">
        <ele>182.787842</ele>
        <time>2011-04-05T12:51:14Z</time>
      </trkpt>
      <trkpt lat="46.99298" lon="5.35525">
        <ele>182.307129</ele>
        <time>2011-04-05T12:51:36Z</time>
      </trkpt>
      <trkpt lat="46.99322" lon="5.3529">
        <ele>182.307129</ele>
        <time>2011-04-05T12:52:07Z</time>
      </trkpt>
      <trkpt lat="46.99345" lon="5.35148">
        <ele>182.307129</ele>
        <time>2011-04-05T12:52:26Z</time>
      </trkpt>
      <trkpt lat="46.99374" lon="5.35031">
        <ele>181.345825</ele>
        <time>2011-04-05T12:52:45Z</time>
      </trkpt>
      <trkpt lat="46.99396" lon="5.34943">
        <ele>181.345825</ele>
        <time>2011-04-05T12:53:01Z</time>
      </trkpt>
      <trkpt lat="46.99405" lon="5.34898">
        <ele>181.345825</ele>
        <time>2011-04-05T12:53:08Z</time>
      </trkpt>
      <trkpt lat="46.99439" lon="5.34764">
        <ele>180.865234</ele>
        <time>2011-04-05T12:53:29Z</time>
      </trkpt>
      <trkpt lat="46.9949" lon="5.34661">
        <ele>180.865234</ele>
        <time>2011-04-05T12:53:47Z</time>
      </trkpt>
      <trkpt lat="46.99533" lon="5.34616">
        <ele>181.345825</ele>
        <time>2011-04-05T12:53:58Z</time>
      </trkpt>
      <trkpt lat="46.99563" lon="5.34533">
        <ele>179.903809</ele>
        <time>2011-04-05T12:54:12Z</time>
      </trkpt>
      <trkpt lat="46.99566" lon="5.34423">
        <ele>180.384521</ele>
        <time>2011-04-05T12:54:29Z</time>
      </trkpt>
      <trkpt lat="46.99568" lon="5.34403">
        <ele>180.384521</ele>
        <time>2011-04-05T12:54:32Z</time>
      </trkpt>
      <trkpt lat="46.99581" lon="5.3437">
        <ele>180.384521</ele>
        <time>2011-04-05T12:54:38Z</time>
      </trkpt>
      <trkpt lat="46.99601" lon="5.34339">
        <ele>180.865234</ele>
        <time>2011-04-05T12:54:50Z</time>
      </trkpt>
      <trkpt lat="46.99601" lon="5.34339">
        <ele>181.826416</ele>
        <time>2011-04-05T12:54:54Z</time>
      </trkpt>
      <trkpt lat="46.99606" lon="5.34336">
        <ele>181.345825</ele>
        <time>2011-04-05T12:54:58Z</time>
      </trkpt>
      <trkpt lat="46.9964" lon="5.34306">
        <ele>181.345825</ele>
        <time>2011-04-05T12:55:13Z</time>
      </trkpt>
      <trkpt lat="46.99682" lon="5.343">
        <ele>180.865234</ele>
        <time>2011-04-05T12:55:24Z</time>
      </trkpt>
      <trkpt lat="46.99756" lon="5.34246">
        <ele>180.865234</ele>
        <time>2011-04-05T12:55:42Z</time>
      </trkpt>
      <trkpt lat="46.99826" lon="5.34167">
        <ele>180.865234</ele>
        <time>2011-04-05T12:56:02Z</time>
      </trkpt>
      <trkpt lat="46.99847" lon="5.34058">
        <ele>180.865234</ele>
        <time>2011-04-05T12:56:19Z</time>
      </trkpt>
      <trkpt lat="46.99882" lon="5.33947">
        <ele>181.345825</ele>
        <time>2011-04-05T12:56:37Z</time>
      </trkpt>
      <trkpt lat="46.99922" lon="5.33855">
        <ele>181.345825</ele>
        <time>2011-04-05T12:56:55Z</time>
      </trkpt>
      <trkpt lat="46.99926" lon="5.33841">
        <ele>181.345825</ele>
        <time>2011-04-05T12:56:58Z</time>
      </trkpt>
      <trkpt lat="46.99943" lon="5.33815">
        <ele>181.345825</ele>
        <time>2011-04-05T12:57:03Z</time>
      </trkpt>
      <trkpt lat="46.99998" lon="5.3373">
        <ele>180.865234</ele>
        <time>2011-04-05T12:57:19Z</time>
      </trkpt>
      <trkpt lat="47.00046" lon="5.33593">
        <ele>180.384521</ele>
        <time>2011-04-05T12:57:42Z</time>
      </trkpt>
      <trkpt lat="47.00062" lon="5.33448">
        <ele>179.903809</ele>
        <time>2011-04-05T12:58:03Z</time>
      </trkpt>
      <trkpt lat="47.0008" lon="5.33284">
        <ele>179.903809</ele>
        <time>2011-04-05T12:58:26Z</time>
      </trkpt>
      <trkpt lat="47.00068" lon="5.33113">
        <ele>179.423218</ele>
        <time>2011-04-05T12:58:50Z</time>
      </trkpt>
      <trkpt lat="47.00065" lon="5.3296">
        <ele>179.903809</ele>
        <time>2011-04-05T12:59:10Z</time>
      </trkpt>
      <trkpt lat="47.00093" lon="5.32841">
        <ele>179.423218</ele>
        <time>2011-04-05T12:59:27Z</time>
      </trkpt>
      <trkpt lat="47.00141" lon="5.32702">
        <ele>179.423218</ele>
        <time>2011-04-05T12:59:49Z</time>
      </trkpt>
      <trkpt lat="47.00192" lon="5.32574">
        <ele>178.942627</ele>
        <time>2011-04-05T13:00:11Z</time>
      </trkpt>
      <trkpt lat="47.00218" lon="5.32423">
        <ele>178.461914</ele>
        <time>2011-04-05T13:00:34Z</time>
      </trkpt>
      <trkpt lat="47.00255" lon="5.32268">
        <ele>177.981201</ele>
        <time>2011-04-05T13:00:57Z</time>
      </trkpt>
      <trkpt lat="47.00296" lon="5.32126">
        <ele>177.981201</ele>
        <time>2011-04-05T13:01:19Z</time>
      </trkpt>
      <trkpt lat="47.00322" lon="5.31964">
        <ele>177.50061</ele>
        <time>2011-04-05T13:01:42Z</time>
      </trkpt>
      <trkpt lat="47.00314" lon="5.31838">
        <ele>177.50061</ele>
        <time>2011-04-05T13:02:00Z</time>
      </trkpt>
      <trkpt lat="47.00341" lon="5.31712">
        <ele>177.981201</ele>
        <time>2011-04-05T13:02:19Z</time>
      </trkpt>
      <trkpt lat="47.00361" lon="5.31616">
        <ele>177.981201</ele>
        <time>2011-04-05T13:02:34Z</time>
      </trkpt>
      <trkpt lat="47.00385" lon="5.31498">
        <ele>177.50061</ele>
        <time>2011-04-05T13:02:51Z</time>
      </trkpt>
      <trkpt lat="47.00393" lon="5.31479">
        <ele>177.02002</ele>
        <time>2011-04-05T13:02:54Z</time>
      </trkpt>
      <trkpt lat="47.00437" lon="5.31398">
        <ele>177.02002</ele>
        <time>2011-04-05T13:03:11Z</time>
      </trkpt>
      <trkpt lat="47.0047" lon="5.31339">
        <ele>176.539307</ele>
        <time>2011-04-05T13:03:24Z</time>
      </trkpt>
      <trkpt lat="47.0051" lon="5.31264">
        <ele>176.539307</ele>
        <time>2011-04-05T13:03:39Z</time>
      </trkpt>
      <trkpt lat="47.00543" lon="5.31193">
        <ele>177.02002</ele>
        <time>2011-04-05T13:03:52Z</time>
      </trkpt>
      <trkpt lat="47.00547" lon="5.31187">
        <ele>177.02002</ele>
        <time>2011-04-05T13:03:53Z</time>
      </trkpt>
      <trkpt lat="47.00591" lon="5.31079">
        <ele>176.539307</ele>
        <time>2011-04-05T13:04:10Z</time>
      </trkpt>
      <trkpt lat="47.00609" lon="5.31024">
        <ele>177.02002</ele>
        <time>2011-04-05T13:04:19Z</time>
      </trkpt>
      <trkpt lat="47.00635" lon="5.31004">
        <ele>177.50061</ele>
        <time>2011-04-05T13:04:26Z</time>
      </trkpt>
      <trkpt lat="47.00658" lon="5.3101">
        <ele>177.50061</ele>
        <time>2011-04-05T13:04:31Z</time>
      </trkpt>
      <trkpt lat="47.00682" lon="5.30999">
        <ele>177.02002</ele>
        <time>2011-04-05T13:04:37Z</time>
      </trkpt>
      <trkpt lat="47.00716" lon="5.30915">
        <ele>177.02002</ele>
        <time>2011-04-05T13:04:52Z</time>
      </trkpt>
      <trkpt lat="47.00737" lon="5.30854">
        <ele>177.02002</ele>
        <time>2011-04-05T13:05:04Z</time>
      </trkpt>
      <trkpt lat="47.00748" lon="5.30822">
        <ele>177.02002</ele>
        <time>2011-04-05T13:05:12Z</time>
      </trkpt>
      <trkpt lat="47.00752" lon="5.30821">
        <ele>176.058594</ele>
        <time>2011-04-05T13:05:26Z</time>
      </trkpt>
      <trkpt lat="47.00756" lon="5.30819">
        <ele>176.539307</ele>
        <time>2011-04-05T13:07:01Z</time>
      </trkpt>
      <trkpt lat="47.00791" lon="5.30823">
        <ele>176.539307</ele>
        <time>2011-04-05T13:07:12Z</time>
      </trkpt>
      <trkpt lat="47.00799" lon="5.30822">
        <ele>177.02002</ele>
        <time>2011-04-05T13:07:14Z</time>
      </trkpt>
      <trkpt lat="47.00808" lon="5.30819">
        <ele>177.02002</ele>
        <time>2011-04-05T13:07:16Z</time>
      </trkpt>
      <trkpt lat="47.00858" lon="5.30774">
        <ele>176.539307</ele>
        <time>2011-04-05T13:07:28Z</time>
      </trkpt>
      <trkpt lat="47.00927" lon="5.30715">
        <ele>177.02002</ele>
        <time>2011-04-05T13:07:43Z</time>
      </trkpt>
      <trkpt lat="47.00988" lon="5.30713">
        <ele>177.02002</ele>
        <time>2011-04-05T13:07:56Z</time>
      </trkpt>
      <trkpt lat="47.00996" lon="5.30714">
        <ele>177.02002</ele>
        <time>2011-04-05T13:07:58Z</time>
      </trkpt>
      <trkpt lat="47.01102" lon="5.30735">
        <ele>177.02002</ele>
        <time>2011-04-05T13:08:19Z</time>
      </trkpt>
      <trkpt lat="47.01196" lon="5.30749">
        <ele>177.02002</ele>
        <time>2011-04-05T13:08:38Z</time>
      </trkpt>
      <trkpt lat="47.01214" lon="5.30758">
        <ele>176.539307</ele>
        <time>2011-04-05T13:08:42Z</time>
      </trkpt>
      <trkpt lat="47.01241" lon="5.30804">
        <ele>177.02002</ele>
        <time>2011-04-05T13:08:51Z</time>
      </trkpt>
      <trkpt lat="47.01277" lon="5.30936">
        <ele>177.50061</ele>
        <time>2011-04-05T13:09:13Z</time>
      </trkpt>
      <trkpt lat="47.01319" lon="5.31004">
        <ele>177.981201</ele>
        <time>2011-04-05T13:09:27Z</time>
      </trkpt>
      <trkpt lat="47.01387" lon="5.31105">
        <ele>177.981201</ele>
        <time>2011-04-05T13:09:47Z</time>
      </trkpt>
      <trkpt lat="47.0149" lon="5.31214">
        <ele>177.981201</ele>
        <time>2011-04-05T13:10:13Z</time>
      </trkpt>
      <trkpt lat="47.01596" lon="5.31314">
        <ele>177.50061</ele>
        <time>2011-04-05T13:10:39Z</time>
      </trkpt>
      <trkpt lat="47.0169" lon="5.31389">
        <ele>178.461914</ele>
        <time>2011-04-05T13:11:02Z</time>
      </trkpt>
      <trkpt lat="47.01734" lon="5.31428">
        <ele>178.942627</ele>
        <time>2011-04-05T13:11:14Z</time>
      </trkpt>
      <trkpt lat="47.0182" lon="5.31517">
        <ele>179.423218</ele>
        <time>2011-04-05T13:11:38Z</time>
      </trkpt>
      <trkpt lat="47.01915" lon="5.3159">
        <ele>178.942627</ele>
        <time>2011-04-05T13:12:00Z</time>
      </trkpt>
      <trkpt lat="47.02075" lon="5.31649">
        <ele>178.942627</ele>
        <time>2011-04-05T13:12:33Z</time>
      </trkpt>
      <trkpt lat="47.02221" lon="5.3174">
        <ele>178.461914</ele>
        <time>2011-04-05T13:13:04Z</time>
      </trkpt>
      <trkpt lat="47.0232" lon="5.3186">
        <ele>178.461914</ele>
        <time>2011-04-05T13:13:29Z</time>
      </trkpt>
      <trkpt lat="47.02437" lon="5.32007">
        <ele>178.461914</ele>
        <time>2011-04-05T13:13:59Z</time>
      </trkpt>
      <trkpt lat="47.02555" lon="5.3212">
        <ele>178.461914</ele>
        <time>2011-04-05T13:14:27Z</time>
      </trkpt>
      <trkpt lat="47.02659" lon="5.32191">
        <ele>177.981201</ele>
        <time>2011-04-05T13:14:51Z</time>
      </trkpt>
      <trkpt lat="47.02708" lon="5.32229">
        <ele>178.461914</ele>
        <time>2011-04-05T13:15:03Z</time>
      </trkpt>
      <trkpt lat="47.02756" lon="5.32321">
        <ele>178.461914</ele>
        <time>2011-04-05T13:15:20Z</time>
      </trkpt>
      <trkpt lat="47.02762" lon="5.32338">
        <ele>178.461914</ele>
        <time>2011-04-05T13:15:23Z</time>
      </trkpt>
      <trkpt lat="47.0278" lon="5.32452">
        <ele>179.423218</ele>
        <time>2011-04-05T13:15:40Z</time>
      </trkpt>
      <trkpt lat="47.028" lon="5.32519">
        <ele>178.942627</ele>
        <time>2011-04-05T13:15:52Z</time>
      </trkpt>
      <trkpt lat="47.02852" lon="5.32627">
        <ele>178.942627</ele>
        <time>2011-04-05T13:16:10Z</time>
      </trkpt>
      <trkpt lat="47.02902" lon="5.32722">
        <ele>179.423218</ele>
        <time>2011-04-05T13:16:24Z</time>
      </trkpt>
      <trkpt lat="47.02916" lon="5.32756">
        <ele>179.423218</ele>
        <time>2011-04-05T13:16:30Z</time>
      </trkpt>
      <trkpt lat="47.02941" lon="5.32789">
        <ele>178.942627</ele>
        <time>2011-04-05T13:16:41Z</time>
      </trkpt>
      <trkpt lat="47.02973" lon="5.32731">
        <ele>179.423218</ele>
        <time>2011-04-05T13:16:54Z</time>
      </trkpt>
      <trkpt lat="47.03054" lon="5.32587">
        <ele>179.423218</ele>
        <time>2011-04-05T13:17:22Z</time>
      </trkpt>
      <trkpt lat="47.03096" lon="5.32517">
        <ele>178.942627</ele>
        <time>2011-04-05T13:17:38Z</time>
      </trkpt>
      <trkpt lat="47.03118" lon="5.32475">
        <ele>179.423218</ele>
        <time>2011-04-05T13:17:51Z</time>
      </trkpt>
      <trkpt lat="47.03138" lon="5.32442">
        <ele>179.423218</ele>
        <time>2011-04-05T13:17:59Z</time>
      </trkpt>
      <trkpt lat="47.03172" lon="5.32382">
        <ele>179.423218</ele>
        <time>2011-04-05T13:18:12Z</time>
      </trkpt>
      <trkpt lat="47.03209" lon="5.32315">
        <ele>179.423218</ele>
        <time>2011-04-05T13:18:24Z</time>
      </trkpt>
      <trkpt lat="47.03266" lon="5.32231">
        <ele>179.423218</ele>
        <time>2011-04-05T13:18:41Z</time>
      </trkpt>
      <trkpt lat="47.03323" lon="5.32155">
        <ele>179.423218</ele>
        <time>2011-04-05T13:18:58Z</time>
      </trkpt>
      <trkpt lat="47.03362" lon="5.3211">
        <ele>178.942627</ele>
        <time>2011-04-05T13:19:10Z</time>
      </trkpt>
      <trkpt lat="47.03372" lon="5.32118">
        <ele>178.942627</ele>
        <time>2011-04-05T13:19:14Z</time>
      </trkpt>
      <trkpt lat="47.03413" lon="5.3221">
        <ele>179.903809</ele>
        <time>2011-04-05T13:19:33Z</time>
      </trkpt>
      <trkpt lat="47.03483" lon="5.32325">
        <ele>179.903809</ele>
        <time>2011-04-05T13:19:56Z</time>
      </trkpt>
      <trkpt lat="47.03541" lon="5.32449">
        <ele>180.384521</ele>
        <time>2011-04-05T13:20:18Z</time>
      </trkpt>
      <trkpt lat="47.03543" lon="5.32455">
        <ele>180.384521</ele>
        <time>2011-04-05T13:20:19Z</time>
      </trkpt>
      <trkpt lat="47.03549" lon="5.32491">
        <ele>180.384521</ele>
        <time>2011-04-05T13:20:25Z</time>
      </trkpt>
      <trkpt lat="47.03568" lon="5.3251">
        <ele>180.384521</ele>
        <time>2011-04-05T13:20:31Z</time>
      </trkpt>
      <trkpt lat="47.03577" lon="5.32513">
        <ele>180.384521</ele>
        <time>2011-04-05T13:20:33Z</time>
      </trkpt>
      <trkpt lat="47.0359" lon="5.32532">
        <ele>180.384521</ele>
        <time>2011-04-05T13:20:37Z</time>
      </trkpt>
      <trkpt lat="47.03597" lon="5.32575">
        <ele>179.903809</ele>
        <time>2011-04-05T13:20:44Z</time>
      </trkpt>
      <trkpt lat="47.03596" lon="5.32588">
        <ele>180.384521</ele>
        <time>2011-04-05T13:20:46Z</time>
      </trkpt>
      <trkpt lat="47.03595" lon="5.32608">
        <ele>180.384521</ele>
        <time>2011-04-05T13:20:49Z</time>
      </trkpt>
      <trkpt lat="47.03606" lon="5.32644">
        <ele>180.865234</ele>
        <time>2011-04-05T13:20:55Z</time>
      </trkpt>
      <trkpt lat="47.03673" lon="5.32774">
        <ele>180.384521</ele>
        <time>2011-04-05T13:21:18Z</time>
      </trkpt>
      <trkpt lat="47.037" lon="5.32814">
        <ele>180.384521</ele>
        <time>2011-04-05T13:21:26Z</time>
      </trkpt>
      <trkpt lat="47.03772" lon="5.32885">
        <ele>180.865234</ele>
        <time>2011-04-05T13:21:45Z</time>
      </trkpt>
      <trkpt lat="47.03813" lon="5.32924">
        <ele>180.865234</ele>
        <time>2011-04-05T13:21:55Z</time>
      </trkpt>
      <trkpt lat="47.03884" lon="5.33037">
        <ele>181.345825</ele>
        <time>2011-04-05T13:22:17Z</time>
      </trkpt>
      <trkpt lat="47.03972" lon="5.33185">
        <ele>181.345825</ele>
        <time>2011-04-05T13:22:44Z</time>
      </trkpt>
      <trkpt lat="47.04068" lon="5.3334">
        <ele>182.307129</ele>
        <time>2011-04-05T13:23:13Z</time>
      </trkpt>
      <trkpt lat="47.04151" lon="5.3347">
        <ele>182.307129</ele>
        <time>2011-04-05T13:23:38Z</time>
      </trkpt>
      <trkpt lat="47.04235" lon="5.33599">
        <ele>182.307129</ele>
        <time>2011-04-05T13:24:01Z</time>
      </trkpt>
      <trkpt lat="47.04284" lon="5.33689">
        <ele>181.826416</ele>
        <time>2011-04-05T13:24:20Z</time>
      </trkpt>
      <trkpt lat="47.04289" lon="5.33704">
        <ele>181.345825</ele>
        <time>2011-04-05T13:24:30Z</time>
      </trkpt>
      <trkpt lat="47.04289" lon="5.33704">
        <ele>182.307129</ele>
        <time>2011-04-05T13:27:05Z</time>
      </trkpt>
      <trkpt lat="47.0429" lon="5.33704">
        <ele>183.749023</ele>
        <time>2011-04-05T13:31:13Z</time>
      </trkpt>
      <trkpt lat="47.04293" lon="5.33702">
        <ele>184.710571</ele>
        <time>2011-04-05T13:32:02Z</time>
      </trkpt>
      <trkpt lat="47.04298" lon="5.33709">
        <ele>185.191162</ele>
        <time>2011-04-05T13:32:07Z</time>
      </trkpt>
      <trkpt lat="47.04325" lon="5.33751">
        <ele>185.671753</ele>
        <time>2011-04-05T13:32:19Z</time>
      </trkpt>
      <trkpt lat="47.0438" lon="5.33845">
        <ele>186.633179</ele>
        <time>2011-04-05T13:32:40Z</time>
      </trkpt>
      <trkpt lat="47.04425" lon="5.339">
        <ele>187.11377</ele>
        <time>2011-04-05T13:32:53Z</time>
      </trkpt>
      <trkpt lat="47.04457" lon="5.33922">
        <ele>186.152466</ele>
        <time>2011-04-05T13:33:00Z</time>
      </trkpt>
      <trkpt lat="47.04546" lon="5.33948">
        <ele>186.152466</ele>
        <time>2011-04-05T13:33:16Z</time>
      </trkpt>
      <trkpt lat="47.04659" lon="5.33972">
        <ele>186.152466</ele>
        <time>2011-04-05T13:33:37Z</time>
      </trkpt>
      <trkpt lat="47.04779" lon="5.33998">
        <ele>187.11377</ele>
        <time>2011-04-05T13:34:03Z</time>
      </trkpt>
      <trkpt lat="47.04922" lon="5.34027">
        <ele>186.633179</ele>
        <time>2011-04-05T13:34:33Z</time>
      </trkpt>
      <trkpt lat="47.05088" lon="5.34064">
        <ele>186.633179</ele>
        <time>2011-04-05T13:35:09Z</time>
      </trkpt>
      <trkpt lat="47.05232" lon="5.34104">
        <ele>187.11377</ele>
        <time>2011-04-05T13:35:41Z</time>
      </trkpt>
      <trkpt lat="47.05386" lon="5.34146">
        <ele>186.633179</ele>
        <time>2011-04-05T13:36:15Z</time>
      </trkpt>
      <trkpt lat="47.05502" lon="5.34179">
        <ele>188.075073</ele>
        <time>2011-04-05T13:36:42Z</time>
      </trkpt>
      <trkpt lat="47.05602" lon="5.34223">
        <ele>187.59436</ele>
        <time>2011-04-05T13:37:04Z</time>
      </trkpt>
      <trkpt lat="47.05702" lon="5.34316">
        <ele>187.59436</ele>
        <time>2011-04-05T13:37:28Z</time>
      </trkpt>
      <trkpt lat="47.05797" lon="5.34413">
        <ele>187.59436</ele>
        <time>2011-04-05T13:37:52Z</time>
      </trkpt>
      <trkpt lat="47.05832" lon="5.34446">
        <ele>188.075073</ele>
        <time>2011-04-05T13:38:01Z</time>
      </trkpt>
      <trkpt lat="47.05901" lon="5.34508">
        <ele>188.075073</ele>
        <time>2011-04-05T13:38:18Z</time>
      </trkpt>
      <trkpt lat="47.05982" lon="5.34579">
        <ele>187.59436</ele>
        <time>2011-04-05T13:38:37Z</time>
      </trkpt>
      <trkpt lat="47.05988" lon="5.34622">
        <ele>187.11377</ele>
        <time>2011-04-05T13:38:44Z</time>
      </trkpt>
      <trkpt lat="47.05945" lon="5.34727">
        <ele>187.11377</ele>
        <time>2011-04-05T13:39:01Z</time>
      </trkpt>
      <trkpt lat="47.05937" lon="5.34745">
        <ele>186.633179</ele>
        <time>2011-04-05T13:39:04Z</time>
      </trkpt>
      <trkpt lat="47.05859" lon="5.34889">
        <ele>187.59436</ele>
        <time>2011-04-05T13:39:29Z</time>
      </trkpt>
      <trkpt lat="47.05811" lon="5.35006">
        <ele>188.075073</ele>
        <time>2011-04-05T13:39:48Z</time>
      </trkpt>
      <trkpt lat="47.05762" lon="5.35125">
        <ele>187.59436</ele>
        <time>2011-04-05T13:40:07Z</time>
      </trkpt>
      <trkpt lat="47.05773" lon="5.35171">
        <ele>188.075073</ele>
        <time>2011-04-05T13:40:15Z</time>
      </trkpt>
      <trkpt lat="47.05838" lon="5.35225">
        <ele>187.59436</ele>
        <time>2011-04-05T13:40:30Z</time>
      </trkpt>
      <trkpt lat="47.059" lon="5.35291">
        <ele>187.59436</ele>
        <time>2011-04-05T13:40:46Z</time>
      </trkpt>
      <trkpt lat="47.05928" lon="5.35308">
        <ele>188.075073</ele>
        <time>2011-04-05T13:40:52Z</time>
      </trkpt>
      <trkpt lat="47.0602" lon="5.35315">
        <ele>188.075073</ele>
        <time>2011-04-05T13:41:10Z</time>
      </trkpt>
      <trkpt lat="47.06111" lon="5.35344">
        <ele>187.59436</ele>
        <time>2011-04-05T13:41:28Z</time>
      </trkpt>
      <trkpt lat="47.06126" lon="5.35364">
        <ele>188.075073</ele>
        <time>2011-04-05T13:41:32Z</time>
      </trkpt>
      <trkpt lat="47.06158" lon="5.35416">
        <ele>188.075073</ele>
        <time>2011-04-05T13:41:42Z</time>
      </trkpt>
      <trkpt lat="47.06267" lon="5.35508">
        <ele>187.59436</ele>
        <time>2011-04-05T13:42:08Z</time>
      </trkpt>
      <trkpt lat="47.06301" lon="5.35547">
        <ele>188.075073</ele>
        <time>2011-04-05T13:42:17Z</time>
      </trkpt>
      <trkpt lat="47.06347" lon="5.35602">
        <ele>188.075073</ele>
        <time>2011-04-05T13:42:32Z</time>
      </trkpt>
      <trkpt lat="47.0638" lon="5.35665">
        <ele>188.555786</ele>
        <time>2011-04-05T13:42:45Z</time>
      </trkpt>
      <trkpt lat="47.06416" lon="5.35773">
        <ele>188.075073</ele>
        <time>2011-04-05T13:43:02Z</time>
      </trkpt>
      <trkpt lat="47.06466" lon="5.35917">
        <ele>188.075073</ele>
        <time>2011-04-05T13:43:25Z</time>
      </trkpt>
      <trkpt lat="47.06539" lon="5.36077">
        <ele>188.075073</ele>
        <time>2011-04-05T13:43:53Z</time>
      </trkpt>
      <trkpt lat="47.06619" lon="5.36169">
        <ele>189.036377</ele>
        <time>2011-04-05T13:44:15Z</time>
      </trkpt>
      <trkpt lat="47.06704" lon="5.36265">
        <ele>189.036377</ele>
        <time>2011-04-05T13:44:38Z</time>
      </trkpt>
      <trkpt lat="47.06793" lon="5.36354">
        <ele>188.555786</ele>
        <time>2011-04-05T13:44:58Z</time>
      </trkpt>
      <trkpt lat="47.06889" lon="5.36387">
        <ele>187.59436</ele>
        <time>2011-04-05T13:45:16Z</time>
      </trkpt>
      <trkpt lat="47.07015" lon="5.3643">
        <ele>188.555786</ele>
        <time>2011-04-05T13:45:41Z</time>
      </trkpt>
      <trkpt lat="47.07029" lon="5.36435">
        <ele>187.59436</ele>
        <time>2011-04-05T13:45:44Z</time>
      </trkpt>
      <trkpt lat="47.07101" lon="5.36451">
        <ele>188.555786</ele>
        <time>2011-04-05T13:45:59Z</time>
      </trkpt>
      <trkpt lat="47.07136" lon="5.36479">
        <ele>186.152466</ele>
        <time>2011-04-05T13:46:12Z</time>
      </trkpt>
      <trkpt lat="47.07131" lon="5.36502">
        <ele>186.633179</ele>
        <time>2011-04-05T13:46:27Z</time>
      </trkpt>
      <trkpt lat="47.071" lon="5.36576">
        <ele>186.633179</ele>
        <time>2011-04-05T13:46:42Z</time>
      </trkpt>
      <trkpt lat="47.07069" lon="5.3669">
        <ele>186.633179</ele>
        <time>2011-04-05T13:47:00Z</time>
      </trkpt>
      <trkpt lat="47.07038" lon="5.36782">
        <ele>187.11377</ele>
        <time>2011-04-05T13:47:15Z</time>
      </trkpt>
      <trkpt lat="47.07031" lon="5.368">
        <ele>186.633179</ele>
        <time>2011-04-05T13:47:18Z</time>
      </trkpt>
      <trkpt lat="47.0702" lon="5.36824">
        <ele>187.11377</ele>
        <time>2011-04-05T13:47:22Z</time>
      </trkpt>
      <trkpt lat="47.07009" lon="5.36847">
        <ele>187.11377</ele>
        <time>2011-04-05T13:47:26Z</time>
      </trkpt>
      <trkpt lat="47.07" lon="5.36873">
        <ele>187.59436</ele>
        <time>2011-04-05T13:47:30Z</time>
      </trkpt>
      <trkpt lat="47.07011" lon="5.36922">
        <ele>187.59436</ele>
        <time>2011-04-05T13:47:39Z</time>
      </trkpt>
      <trkpt lat="47.07109" lon="5.36993">
        <ele>189.997681</ele>
        <time>2011-04-05T13:48:02Z</time>
      </trkpt>
      <trkpt lat="47.07161" lon="5.37031">
        <ele>188.075073</ele>
        <time>2011-04-05T13:48:14Z</time>
      </trkpt>
      <trkpt lat="47.07242" lon="5.37088">
        <ele>187.59436</ele>
        <time>2011-04-05T13:48:31Z</time>
      </trkpt>
      <trkpt lat="47.07282" lon="5.37116">
        <ele>187.59436</ele>
        <time>2011-04-05T13:48:40Z</time>
      </trkpt>
      <trkpt lat="47.07298" lon="5.37126">
        <ele>187.59436</ele>
        <time>2011-04-05T13:48:44Z</time>
      </trkpt>
      <trkpt lat="47.07309" lon="5.37135">
        <ele>187.59436</ele>
        <time>2011-04-05T13:48:47Z</time>
      </trkpt>
      <trkpt lat="47.07343" lon="5.3718">
        <ele>188.075073</ele>
        <time>2011-04-05T13:48:57Z</time>
      </trkpt>
      <trkpt lat="47.07396" lon="5.37274">
        <ele>187.59436</ele>
        <time>2011-04-05T13:49:13Z</time>
      </trkpt>
      <trkpt lat="47.07399" lon="5.37279">
        <ele>187.59436</ele>
        <time>2011-04-05T13:49:14Z</time>
      </trkpt>
      <trkpt lat="47.07412" lon="5.37318">
        <ele>187.59436</ele>
        <time>2011-04-05T13:49:21Z</time>
      </trkpt>
      <trkpt lat="47.07443" lon="5.374">
        <ele>187.59436</ele>
        <time>2011-04-05T13:49:33Z</time>
      </trkpt>
      <trkpt lat="47.07457" lon="5.37499">
        <ele>188.075073</ele>
        <time>2011-04-05T13:49:48Z</time>
      </trkpt>
      <trkpt lat="47.07459" lon="5.37524">
        <ele>188.075073</ele>
        <time>2011-04-05T13:49:52Z</time>
      </trkpt>
      <trkpt lat="47.07457" lon="5.37555">
        <ele>188.075073</ele>
        <time>2011-04-05T13:49:57Z</time>
      </trkpt>
      <trkpt lat="47.07457" lon="5.37602">
        <ele>187.59436</ele>
        <time>2011-04-05T13:50:04Z</time>
      </trkpt>
      <trkpt lat="47.07469" lon="5.3771">
        <ele>188.555786</ele>
        <time>2011-04-05T13:50:19Z</time>
      </trkpt>
      <trkpt lat="47.07474" lon="5.3776">
        <ele>188.075073</ele>
        <time>2011-04-05T13:50:26Z</time>
      </trkpt>
      <trkpt lat="47.07481" lon="5.37843">
        <ele>188.555786</ele>
        <time>2011-04-05T13:50:37Z</time>
      </trkpt>
      <trkpt lat="47.07485" lon="5.37927">
        <ele>188.555786</ele>
        <time>2011-04-05T13:50:48Z</time>
      </trkpt>
      <trkpt lat="47.07487" lon="5.37949">
        <ele>188.555786</ele>
        <time>2011-04-05T13:50:51Z</time>
      </trkpt>
      <trkpt lat="47.07487" lon="5.37965">
        <ele>189.036377</ele>
        <time>2011-04-05T13:50:53Z</time>
      </trkpt>
      <trkpt lat="47.07503" lon="5.3808">
        <ele>188.075073</ele>
        <time>2011-04-05T13:51:06Z</time>
      </trkpt>
      <trkpt lat="47.07503" lon="5.38132">
        <ele>188.075073</ele>
        <time>2011-04-05T13:51:13Z</time>
      </trkpt>
      <trkpt lat="47.07522" lon="5.38277">
        <ele>189.036377</ele>
        <time>2011-04-05T13:51:27Z</time>
      </trkpt>
      <trkpt lat="47.07524" lon="5.38288">
        <ele>189.036377</ele>
        <time>2011-04-05T13:51:28Z</time>
      </trkpt>
      <trkpt lat="47.07534" lon="5.38347">
        <ele>189.036377</ele>
        <time>2011-04-05T13:51:34Z</time>
      </trkpt>
      <trkpt lat="47.07539" lon="5.38387">
        <ele>189.036377</ele>
        <time>2011-04-05T13:51:39Z</time>
      </trkpt>
      <trkpt lat="47.07545" lon="5.38433">
        <ele>189.036377</ele>
        <time>2011-04-05T13:51:45Z</time>
      </trkpt>
      <trkpt lat="47.07548" lon="5.38474">
        <ele>188.555786</ele>
        <time>2011-04-05T13:51:51Z</time>
      </trkpt>
      <trkpt lat="47.07568" lon="5.38609">
        <ele>189.036377</ele>
        <time>2011-04-05T13:52:10Z</time>
      </trkpt>
      <trkpt lat="47.07598" lon="5.38778">
        <ele>189.516968</ele>
        <time>2011-04-05T13:52:34Z</time>
      </trkpt>
      <trkpt lat="47.07617" lon="5.38829">
        <ele>189.997681</ele>
        <time>2011-04-05T13:52:42Z</time>
      </trkpt>
      <trkpt lat="47.07669" lon="5.38954">
        <ele>190.478394</ele>
        <time>2011-04-05T13:53:02Z</time>
      </trkpt>
      <trkpt lat="47.07732" lon="5.39101">
        <ele>191.920288</ele>
        <time>2011-04-05T13:53:27Z</time>
      </trkpt>
      <trkpt lat="47.07736" lon="5.39139">
        <ele>191.920288</ele>
        <time>2011-04-05T13:53:33Z</time>
      </trkpt>
      <trkpt lat="47.07725" lon="5.39237">
        <ele>192.881714</ele>
        <time>2011-04-05T13:53:48Z</time>
      </trkpt>
      <trkpt lat="47.07715" lon="5.39316">
        <ele>193.362305</ele>
        <time>2011-04-05T13:54:00Z</time>
      </trkpt>
      <trkpt lat="47.07709" lon="5.39373">
        <ele>192.881714</ele>
        <time>2011-04-05T13:54:08Z</time>
      </trkpt>
      <trkpt lat="47.07708" lon="5.39395">
        <ele>192.881714</ele>
        <time>2011-04-05T13:54:11Z</time>
      </trkpt>
      <trkpt lat="47.07706" lon="5.39414">
        <ele>192.401123</ele>
        <time>2011-04-05T13:54:14Z</time>
      </trkpt>
      <trkpt lat="47.07702" lon="5.39433">
        <ele>192.881714</ele>
        <time>2011-04-05T13:54:17Z</time>
      </trkpt>
      <trkpt lat="47.07693" lon="5.39484">
        <ele>192.881714</ele>
        <time>2011-04-05T13:54:25Z</time>
      </trkpt>
      <trkpt lat="47.07692" lon="5.39505">
        <ele>193.362305</ele>
        <time>2011-04-05T13:54:28Z</time>
      </trkpt>
      <trkpt lat="47.07684" lon="5.39536">
        <ele>193.843018</ele>
        <time>2011-04-05T13:54:33Z</time>
      </trkpt>
      <trkpt lat="47.07681" lon="5.39555">
        <ele>194.32373</ele>
        <time>2011-04-05T13:54:36Z</time>
      </trkpt>
      <trkpt lat="47.07679" lon="5.39609">
        <ele>195.284912</ele>
        <time>2011-04-05T13:54:44Z</time>
      </trkpt>
      <trkpt lat="47.0767" lon="5.39703">
        <ele>197.688232</ele>
        <time>2011-04-05T13:54:59Z</time>
      </trkpt>
      <trkpt lat="47.07667" lon="5.39721">
        <ele>198.168945</ele>
        <time>2011-04-05T13:55:02Z</time>
      </trkpt>
      <trkpt lat="47.07654" lon="5.39794">
        <ele>199.61084</ele>
        <time>2011-04-05T13:55:16Z</time>
      </trkpt>
      <trkpt lat="47.0765" lon="5.39847">
        <ele>200.091675</ele>
        <time>2011-04-05T13:55:27Z</time>
      </trkpt>
      <trkpt lat="47.07638" lon="5.39913">
        <ele>200.572266</ele>
        <time>2011-04-05T13:55:40Z</time>
      </trkpt>
      <trkpt lat="47.07633" lon="5.39949">
        <ele>200.572266</ele>
        <time>2011-04-05T13:55:46Z</time>
      </trkpt>
      <trkpt lat="47.07626" lon="5.40015">
        <ele>201.052856</ele>
        <time>2011-04-05T13:55:57Z</time>
      </trkpt>
      <trkpt lat="47.07621" lon="5.40059">
        <ele>201.533569</ele>
        <time>2011-04-05T13:56:04Z</time>
      </trkpt>
      <trkpt lat="47.07615" lon="5.40083">
        <ele>201.533569</ele>
        <time>2011-04-05T13:56:08Z</time>
      </trkpt>
      <trkpt lat="47.07607" lon="5.40168">
        <ele>202.014282</ele>
        <time>2011-04-05T13:56:21Z</time>
      </trkpt>
      <trkpt lat="47.07603" lon="5.40186">
        <ele>202.014282</ele>
        <time>2011-04-05T13:56:24Z</time>
      </trkpt>
      <trkpt lat="47.076" lon="5.40212">
        <ele>202.014282</ele>
        <time>2011-04-05T13:56:28Z</time>
      </trkpt>
      <trkpt lat="47.07596" lon="5.40275">
        <ele>202.014282</ele>
        <time>2011-04-05T13:56:37Z</time>
      </trkpt>
      <trkpt lat="47.07569" lon="5.40421">
        <ele>202.014282</ele>
        <time>2011-04-05T13:56:56Z</time>
      </trkpt>
      <trkpt lat="47.07563" lon="5.40469">
        <ele>200.572266</ele>
        <time>2011-04-05T13:57:01Z</time>
      </trkpt>
      <trkpt lat="47.07559" lon="5.40532">
        <ele>199.130127</ele>
        <time>2011-04-05T13:57:07Z</time>
      </trkpt>
      <trkpt lat="47.07539" lon="5.40661">
        <ele>199.130127</ele>
        <time>2011-04-05T13:57:22Z</time>
      </trkpt>
      <trkpt lat="47.07519" lon="5.40797">
        <ele>202.494873</ele>
        <time>2011-04-05T13:57:43Z</time>
      </trkpt>
      <trkpt lat="47.07514" lon="5.40813">
        <ele>202.975464</ele>
        <time>2011-04-05T13:57:46Z</time>
      </trkpt>
      <trkpt lat="47.07506" lon="5.40828">
        <ele>202.494873</ele>
        <time>2011-04-05T13:57:49Z</time>
      </trkpt>
      <trkpt lat="47.07493" lon="5.40865">
        <ele>202.014282</ele>
        <time>2011-04-05T13:57:55Z</time>
      </trkpt>
      <trkpt lat="47.07483" lon="5.40882">
        <ele>202.014282</ele>
        <time>2011-04-05T13:57:58Z</time>
      </trkpt>
      <trkpt lat="47.0747" lon="5.4091">
        <ele>200.572266</ele>
        <time>2011-04-05T13:58:02Z</time>
      </trkpt>
      <trkpt lat="47.07436" lon="5.41011">
        <ele>199.61084</ele>
        <time>2011-04-05T13:58:15Z</time>
      </trkpt>
      <trkpt lat="47.07443" lon="5.41039">
        <ele>200.572266</ele>
        <time>2011-04-05T13:58:20Z</time>
      </trkpt>
      <trkpt lat="47.07522" lon="5.41119">
        <ele>203.456177</ele>
        <time>2011-04-05T13:58:44Z</time>
      </trkpt>
      <trkpt lat="47.07534" lon="5.4117">
        <ele>204.898071</ele>
        <time>2011-04-05T13:58:55Z</time>
      </trkpt>
      <trkpt lat="47.07519" lon="5.4122">
        <ele>205.378784</ele>
        <time>2011-04-05T13:59:10Z</time>
      </trkpt>
      <trkpt lat="47.07507" lon="5.41236">
        <ele>206.340088</ele>
        <time>2011-04-05T13:59:37Z</time>
      </trkpt>
      <trkpt lat="47.07488" lon="5.4126">
        <ele>206.340088</ele>
        <time>2011-04-05T13:59:46Z</time>
      </trkpt>
      <trkpt lat="47.07484" lon="5.41266">
        <ele>206.820679</ele>
        <time>2011-04-05T13:59:48Z</time>
      </trkpt>
      <trkpt lat="47.07471" lon="5.4128">
        <ele>207.301392</ele>
        <time>2011-04-05T13:59:57Z</time>
      </trkpt>
      <trkpt lat="47.07439" lon="5.41297">
        <ele>208.262817</ele>
        <time>2011-04-05T14:00:06Z</time>
      </trkpt>
      <trkpt lat="47.07396" lon="5.4132">
        <ele>208.743408</ele>
        <time>2011-04-05T14:00:14Z</time>
      </trkpt>
      <trkpt lat="47.07357" lon="5.41319">
        <ele>208.262817</ele>
        <time>2011-04-05T14:00:20Z</time>
      </trkpt>
      <trkpt lat="47.07262" lon="5.41267">
        <ele>207.301392</ele>
        <time>2011-04-05T14:00:39Z</time>
      </trkpt>
      <trkpt lat="47.07174" lon="5.4123">
        <ele>206.820679</ele>
        <time>2011-04-05T14:00:56Z</time>
      </trkpt>
      <trkpt lat="47.07154" lon="5.41233">
        <ele>206.820679</ele>
        <time>2011-04-05T14:01:00Z</time>
      </trkpt>
      <trkpt lat="47.07109" lon="5.41256">
        <ele>207.782104</ele>
        <time>2011-04-05T14:01:10Z</time>
      </trkpt>
      <trkpt lat="47.07056" lon="5.41284">
        <ele>208.743408</ele>
        <time>2011-04-05T14:01:23Z</time>
      </trkpt>
      <trkpt lat="47.07007" lon="5.41312">
        <ele>209.224121</ele>
        <time>2011-04-05T14:01:35Z</time>
      </trkpt>
      <trkpt lat="47.06987" lon="5.41333">
        <ele>209.224121</ele>
        <time>2011-04-05T14:01:40Z</time>
      </trkpt>
      <trkpt lat="47.06967" lon="5.4134">
        <ele>209.224121</ele>
        <time>2011-04-05T14:01:45Z</time>
      </trkpt>
      <trkpt lat="47.06957" lon="5.41339">
        <ele>209.224121</ele>
        <time>2011-04-05T14:01:47Z</time>
      </trkpt>
      <trkpt lat="47.06869" lon="5.41386">
        <ele>210.185425</ele>
        <time>2011-04-05T14:02:07Z</time>
      </trkpt>
      <trkpt lat="47.06782" lon="5.41424">
        <ele>210.185425</ele>
        <time>2011-04-05T14:02:26Z</time>
      </trkpt>
      <trkpt lat="47.06759" lon="5.41437">
        <ele>209.704834</ele>
        <time>2011-04-05T14:02:31Z</time>
      </trkpt>
      <trkpt lat="47.06736" lon="5.41456">
        <ele>209.704834</ele>
        <time>2011-04-05T14:02:37Z</time>
      </trkpt>
      <trkpt lat="47.06717" lon="5.41457">
        <ele>209.704834</ele>
        <time>2011-04-05T14:02:42Z</time>
      </trkpt>
      <trkpt lat="47.06636" lon="5.41488">
        <ele>210.185425</ele>
        <time>2011-04-05T14:03:00Z</time>
      </trkpt>
      <trkpt lat="47.06593" lon="5.41508">
        <ele>210.185425</ele>
        <time>2011-04-05T14:03:10Z</time>
      </trkpt>
      <trkpt lat="47.0651" lon="5.41543">
        <ele>211.146729</ele>
        <time>2011-04-05T14:03:29Z</time>
      </trkpt>
      <trkpt lat="47.06454" lon="5.41567">
        <ele>210.666016</ele>
        <time>2011-04-05T14:03:40Z</time>
      </trkpt>
      <trkpt lat="47.06438" lon="5.41572">
        <ele>210.666016</ele>
        <time>2011-04-05T14:03:43Z</time>
      </trkpt>
      <trkpt lat="47.06407" lon="5.41587">
        <ele>209.704834</ele>
        <time>2011-04-05T14:03:50Z</time>
      </trkpt>
      <trkpt lat="47.06377" lon="5.41597">
        <ele>209.704834</ele>
        <time>2011-04-05T14:03:56Z</time>
      </trkpt>
      <trkpt lat="47.0634" lon="5.41596">
        <ele>209.224121</ele>
        <time>2011-04-05T14:04:03Z</time>
      </trkpt>
      <trkpt lat="47.06321" lon="5.41591">
        <ele>209.224121</ele>
        <time>2011-04-05T14:04:06Z</time>
      </trkpt>
      <trkpt lat="47.06293" lon="5.41573">
        <ele>207.782104</ele>
        <time>2011-04-05T14:04:12Z</time>
      </trkpt>
      <trkpt lat="47.06266" lon="5.41582">
        <ele>207.301392</ele>
        <time>2011-04-05T14:04:19Z</time>
      </trkpt>
      <trkpt lat="47.06261" lon="5.41599">
        <ele>207.301392</ele>
        <time>2011-04-05T14:04:22Z</time>
      </trkpt>
      <trkpt lat="47.0625" lon="5.41639">
        <ele>207.301392</ele>
        <time>2011-04-05T14:04:29Z</time>
      </trkpt>
      <trkpt lat="47.06239" lon="5.41668">
        <ele>207.301392</ele>
        <time>2011-04-05T14:04:34Z</time>
      </trkpt>
      <trkpt lat="47.06214" lon="5.41763">
        <ele>206.340088</ele>
        <time>2011-04-05T14:04:48Z</time>
      </trkpt>
      <trkpt lat="47.06181" lon="5.41941">
        <ele>203.456177</ele>
        <time>2011-04-05T14:05:10Z</time>
      </trkpt>
      <trkpt lat="47.06169" lon="5.42075">
        <ele>201.052856</ele>
        <time>2011-04-05T14:05:24Z</time>
      </trkpt>
      <trkpt lat="47.06167" lon="5.42108">
        <ele>200.572266</ele>
        <time>2011-04-05T14:05:28Z</time>
      </trkpt>
      <trkpt lat="47.06168" lon="5.4213">
        <ele>200.091675</ele>
        <time>2011-04-05T14:05:31Z</time>
      </trkpt>
      <trkpt lat="47.06166" lon="5.42239">
        <ele>200.572266</ele>
        <time>2011-04-05T14:05:45Z</time>
      </trkpt>
      <trkpt lat="47.06197" lon="5.42365">
        <ele>199.130127</ele>
        <time>2011-04-05T14:06:02Z</time>
      </trkpt>
      <trkpt lat="47.06243" lon="5.42537">
        <ele>199.130127</ele>
        <time>2011-04-05T14:06:27Z</time>
      </trkpt>
      <trkpt lat="47.06267" lon="5.42618">
        <ele>199.61084</ele>
        <time>2011-04-05T14:06:39Z</time>
      </trkpt>
      <trkpt lat="47.06253" lon="5.4267">
        <ele>199.130127</ele>
        <time>2011-04-05T14:06:48Z</time>
      </trkpt>
      <trkpt lat="47.06248" lon="5.42671">
        <ele>199.130127</ele>
        <time>2011-04-05T14:06:49Z</time>
      </trkpt>
      <trkpt lat="47.06157" lon="5.42676">
        <ele>197.20752</ele>
        <time>2011-04-05T14:07:06Z</time>
      </trkpt>
      <trkpt lat="47.0606" lon="5.42677">
        <ele>196.246338</ele>
        <time>2011-04-05T14:07:24Z</time>
      </trkpt>
      <trkpt lat="47.05992" lon="5.42678">
        <ele>197.688232</ele>
        <time>2011-04-05T14:07:36Z</time>
      </trkpt>
      <trkpt lat="47.05971" lon="5.42677">
        <ele>199.130127</ele>
        <time>2011-04-05T14:07:42Z</time>
      </trkpt>
      <trkpt lat="47.05964" lon="5.42722">
        <ele>197.20752</ele>
        <time>2011-04-05T14:07:51Z</time>
      </trkpt>
      <trkpt lat="47.05961" lon="5.42864">
        <ele>196.726929</ele>
        <time>2011-04-05T14:08:10Z</time>
      </trkpt>
      <trkpt lat="47.0596" lon="5.42914">
        <ele>196.726929</ele>
        <time>2011-04-05T14:08:17Z</time>
      </trkpt>
      <trkpt lat="47.05955" lon="5.42943">
        <ele>196.246338</ele>
        <time>2011-04-05T14:08:21Z</time>
      </trkpt>
      <trkpt lat="47.05956" lon="5.42971">
        <ele>196.726929</ele>
        <time>2011-04-05T14:08:25Z</time>
      </trkpt>
      <trkpt lat="47.05959" lon="5.42984">
        <ele>196.726929</ele>
        <time>2011-04-05T14:08:27Z</time>
      </trkpt>
      <trkpt lat="47.05961" lon="5.43128">
        <ele>196.726929</ele>
        <time>2011-04-05T14:08:47Z</time>
      </trkpt>
      <trkpt lat="47.05965" lon="5.43367">
        <ele>196.246338</ele>
        <time>2011-04-05T14:09:19Z</time>
      </trkpt>
      <trkpt lat="47.05965" lon="5.43557">
        <ele>196.726929</ele>
        <time>2011-04-05T14:09:43Z</time>
      </trkpt>
      <trkpt lat="47.05968" lon="5.43669">
        <ele>197.688232</ele>
        <time>2011-04-05T14:09:59Z</time>
      </trkpt>
      <trkpt lat="47.05968" lon="5.43729">
        <ele>196.726929</ele>
        <time>2011-04-05T14:10:09Z</time>
      </trkpt>
      <trkpt lat="47.0597" lon="5.43752">
        <ele>196.726929</ele>
        <time>2011-04-05T14:10:13Z</time>
      </trkpt>
      <trkpt lat="47.05958" lon="5.43795">
        <ele>196.726929</ele>
        <time>2011-04-05T14:10:20Z</time>
      </trkpt>
      <trkpt lat="47.05951" lon="5.43814">
        <ele>196.726929</ele>
        <time>2011-04-05T14:10:23Z</time>
      </trkpt>
      <trkpt lat="47.05937" lon="5.4384">
        <ele>196.726929</ele>
        <time>2011-04-05T14:10:28Z</time>
      </trkpt>
      <trkpt lat="47.0591" lon="5.43875">
        <ele>196.246338</ele>
        <time>2011-04-05T14:10:35Z</time>
      </trkpt>
      <trkpt lat="47.05882" lon="5.4391">
        <ele>196.246338</ele>
        <time>2011-04-05T14:10:42Z</time>
      </trkpt>
      <trkpt lat="47.05873" lon="5.43928">
        <ele>196.726929</ele>
        <time>2011-04-05T14:10:45Z</time>
      </trkpt>
      <trkpt lat="47.0579" lon="5.44045">
        <ele>196.246338</ele>
        <time>2011-04-05T14:11:06Z</time>
      </trkpt>
      <trkpt lat="47.05687" lon="5.44178">
        <ele>196.246338</ele>
        <time>2011-04-05T14:11:31Z</time>
      </trkpt>
      <trkpt lat="47.05671" lon="5.44197">
        <ele>196.246338</ele>
        <time>2011-04-05T14:11:35Z</time>
      </trkpt>
      <trkpt lat="47.05648" lon="5.44208">
        <ele>196.246338</ele>
        <time>2011-04-05T14:11:40Z</time>
      </trkpt>
      <trkpt lat="47.05633" lon="5.44227">
        <ele>196.726929</ele>
        <time>2011-04-05T14:11:46Z</time>
      </trkpt>
      <trkpt lat="47.05611" lon="5.44266">
        <ele>197.20752</ele>
        <time>2011-04-05T14:11:53Z</time>
      </trkpt>
      <trkpt lat="47.05603" lon="5.44272">
        <ele>197.20752</ele>
        <time>2011-04-05T14:11:55Z</time>
      </trkpt>
      <trkpt lat="47.05555" lon="5.44336">
        <ele>197.20752</ele>
        <time>2011-04-05T14:12:09Z</time>
      </trkpt>
      <trkpt lat="47.05544" lon="5.4437">
        <ele>197.688232</ele>
        <time>2011-04-05T14:12:14Z</time>
      </trkpt>
      <trkpt lat="47.05541" lon="5.44394">
        <ele>197.688232</ele>
        <time>2011-04-05T14:12:17Z</time>
      </trkpt>
      <trkpt lat="47.05544" lon="5.44425">
        <ele>197.688232</ele>
        <time>2011-04-05T14:12:21Z</time>
      </trkpt>
      <trkpt lat="47.05601" lon="5.44594">
        <ele>197.688232</ele>
        <time>2011-04-05T14:12:46Z</time>
      </trkpt>
      <trkpt lat="47.05654" lon="5.44769">
        <ele>197.688232</ele>
        <time>2011-04-05T14:13:11Z</time>
      </trkpt>
      <trkpt lat="47.05726" lon="5.44995">
        <ele>197.688232</ele>
        <time>2011-04-05T14:13:44Z</time>
      </trkpt>
      <trkpt lat="47.05779" lon="5.45169">
        <ele>197.20752</ele>
        <time>2011-04-05T14:14:08Z</time>
      </trkpt>
      <trkpt lat="47.05825" lon="5.45313">
        <ele>197.20752</ele>
        <time>2011-04-05T14:14:28Z</time>
      </trkpt>
      <trkpt lat="47.05856" lon="5.45417">
        <ele>196.726929</ele>
        <time>2011-04-05T14:14:42Z</time>
      </trkpt>
      <trkpt lat="47.05862" lon="5.45438">
        <ele>196.726929</ele>
        <time>2011-04-05T14:14:45Z</time>
      </trkpt>
      <trkpt lat="47.05867" lon="5.45451">
        <ele>196.726929</ele>
        <time>2011-04-05T14:14:47Z</time>
      </trkpt>
      <trkpt lat="47.05918" lon="5.45611">
        <ele>197.20752</ele>
        <time>2011-04-05T14:15:10Z</time>
      </trkpt>
      <trkpt lat="47.05959" lon="5.45736">
        <ele>196.726929</ele>
        <time>2011-04-05T14:15:27Z</time>
      </trkpt>
      <trkpt lat="47.06007" lon="5.4589">
        <ele>195.765625</ele>
        <time>2011-04-05T14:15:48Z</time>
      </trkpt>
      <trkpt lat="47.06024" lon="5.4595">
        <ele>196.246338</ele>
        <time>2011-04-05T14:16:01Z</time>
      </trkpt>
      <trkpt lat="47.06049" lon="5.46031">
        <ele>197.20752</ele>
        <time>2011-04-05T14:16:15Z</time>
      </trkpt>
      <trkpt lat="47.06075" lon="5.46079">
        <ele>194.804321</ele>
        <time>2011-04-05T14:16:24Z</time>
      </trkpt>
      <trkpt lat="47.06076" lon="5.46081">
        <ele>194.32373</ele>
        <time>2011-04-05T14:16:39Z</time>
      </trkpt>
      <trkpt lat="47.06089" lon="5.46103">
        <ele>194.804321</ele>
        <time>2011-04-05T14:17:25Z</time>
      </trkpt>
      <trkpt lat="47.06123" lon="5.4612">
        <ele>194.32373</ele>
        <time>2011-04-05T14:17:37Z</time>
      </trkpt>
      <trkpt lat="47.06194" lon="5.46173">
        <ele>194.32373</ele>
        <time>2011-04-05T14:17:55Z</time>
      </trkpt>
      <trkpt lat="47.0627" lon="5.46221">
        <ele>194.32373</ele>
        <time>2011-04-05T14:18:12Z</time>
      </trkpt>
      <trkpt lat="47.06358" lon="5.46294">
        <ele>194.804321</ele>
        <time>2011-04-05T14:18:32Z</time>
      </trkpt>
      <trkpt lat="47.06459" lon="5.46375">
        <ele>193.843018</ele>
        <time>2011-04-05T14:18:54Z</time>
      </trkpt>
      <trkpt lat="47.06556" lon="5.46452">
        <ele>194.32373</ele>
        <time>2011-04-05T14:19:15Z</time>
      </trkpt>
      <trkpt lat="47.06669" lon="5.46541">
        <ele>193.362305</ele>
        <time>2011-04-05T14:19:39Z</time>
      </trkpt>
      <trkpt lat="47.06744" lon="5.466">
        <ele>193.843018</ele>
        <time>2011-04-05T14:19:55Z</time>
      </trkpt>
      <trkpt lat="47.06819" lon="5.46646">
        <ele>194.804321</ele>
        <time>2011-04-05T14:20:11Z</time>
      </trkpt>
      <trkpt lat="47.06931" lon="5.46733">
        <ele>194.32373</ele>
        <time>2011-04-05T14:20:35Z</time>
      </trkpt>
      <trkpt lat="47.07035" lon="5.46815">
        <ele>194.32373</ele>
        <time>2011-04-05T14:20:58Z</time>
      </trkpt>
      <trkpt lat="47.0705" lon="5.46828">
        <ele>194.32373</ele>
        <time>2011-04-05T14:21:02Z</time>
      </trkpt>
      <trkpt lat="47.07112" lon="5.46878">
        <ele>194.32373</ele>
        <time>2011-04-05T14:21:17Z</time>
      </trkpt>
      <trkpt lat="47.07173" lon="5.46929">
        <ele>194.32373</ele>
        <time>2011-04-05T14:21:31Z</time>
      </trkpt>
      <trkpt lat="47.07192" lon="5.46954">
        <ele>194.32373</ele>
        <time>2011-04-05T14:21:36Z</time>
      </trkpt>
      <trkpt lat="47.07242" lon="5.46996">
        <ele>193.362305</ele>
        <time>2011-04-05T14:21:48Z</time>
      </trkpt>
      <trkpt lat="47.07256" lon="5.4701">
        <ele>193.362305</ele>
        <time>2011-04-05T14:21:52Z</time>
      </trkpt>
      <trkpt lat="47.07285" lon="5.47033">
        <ele>193.843018</ele>
        <time>2011-04-05T14:22:01Z</time>
      </trkpt>
      <trkpt lat="47.07297" lon="5.4704">
        <ele>194.32373</ele>
        <time>2011-04-05T14:22:04Z</time>
      </trkpt>
      <trkpt lat="47.07373" lon="5.471">
        <ele>193.362305</ele>
        <time>2011-04-05T14:22:22Z</time>
      </trkpt>
      <trkpt lat="47.0739" lon="5.47115">
        <ele>193.843018</ele>
        <time>2011-04-05T14:22:26Z</time>
      </trkpt>
      <trkpt lat="47.07498" lon="5.47196">
        <ele>193.843018</ele>
        <time>2011-04-05T14:22:51Z</time>
      </trkpt>
      <trkpt lat="47.07586" lon="5.47269">
        <ele>193.362305</ele>
        <time>2011-04-05T14:23:12Z</time>
      </trkpt>
      <trkpt lat="47.07645" lon="5.47354">
        <ele>193.362305</ele>
        <time>2011-04-05T14:23:29Z</time>
      </trkpt>
      <trkpt lat="47.07683" lon="5.47417">
        <ele>193.362305</ele>
        <time>2011-04-05T14:23:41Z</time>
      </trkpt>
      <trkpt lat="47.07722" lon="5.4748">
        <ele>193.843018</ele>
        <time>2011-04-05T14:23:53Z</time>
      </trkpt>
      <trkpt lat="47.07793" lon="5.47584">
        <ele>193.362305</ele>
        <time>2011-04-05T14:24:13Z</time>
      </trkpt>
      <trkpt lat="47.07875" lon="5.47708">
        <ele>193.843018</ele>
        <time>2011-04-05T14:24:38Z</time>
      </trkpt>
      <trkpt lat="47.07926" lon="5.4779">
        <ele>194.32373</ele>
        <time>2011-04-05T14:24:55Z</time>
      </trkpt>
      <trkpt lat="47.07968" lon="5.47858">
        <ele>194.804321</ele>
        <time>2011-04-05T14:25:09Z</time>
      </trkpt>
      <trkpt lat="47.08016" lon="5.47935">
        <ele>194.804321</ele>
        <time>2011-04-05T14:25:26Z</time>
      </trkpt>
      <trkpt lat="47.08045" lon="5.47977">
        <ele>195.284912</ele>
        <time>2011-04-05T14:25:36Z</time>
      </trkpt>
      <trkpt lat="47.08094" lon="5.48024">
        <ele>195.284912</ele>
        <time>2011-04-05T14:25:50Z</time>
      </trkpt>
      <trkpt lat="47.08141" lon="5.48073">
        <ele>195.284912</ele>
        <time>2011-04-05T14:26:05Z</time>
      </trkpt>
      <trkpt lat="47.08176" lon="5.48114">
        <ele>194.32373</ele>
        <time>2011-04-05T14:26:16Z</time>
      </trkpt>
      <trkpt lat="47.08226" lon="5.48186">
        <ele>194.804321</ele>
        <time>2011-04-05T14:26:32Z</time>
      </trkpt>
      <trkpt lat="47.08259" lon="5.48241">
        <ele>194.804321</ele>
        <time>2011-04-05T14:26:44Z</time>
      </trkpt>
      <trkpt lat="47.08284" lon="5.48282">
        <ele>194.32373</ele>
        <time>2011-04-05T14:26:52Z</time>
      </trkpt>
      <trkpt lat="47.08356" lon="5.48361">
        <ele>194.804321</ele>
        <time>2011-04-05T14:27:11Z</time>
      </trkpt>
      <trkpt lat="47.08409" lon="5.48446">
        <ele>195.284912</ele>
        <time>2011-04-05T14:27:30Z</time>
      </trkpt>
      <trkpt lat="47.08449" lon="5.48515">
        <ele>194.804321</ele>
        <time>2011-04-05T14:27:45Z</time>
      </trkpt>
      <trkpt lat="47.08468" lon="5.48545">
        <ele>194.804321</ele>
        <time>2011-04-05T14:27:59Z</time>
      </trkpt>
      <trkpt lat="47.08489" lon="5.48579">
        <ele>194.804321</ele>
        <time>2011-04-05T14:28:10Z</time>
      </trkpt>
      <trkpt lat="47.08491" lon="5.48583">
        <ele>194.804321</ele>
        <time>2011-04-05T14:28:11Z</time>
      </trkpt>
      <trkpt lat="47.08516" lon="5.48621">
        <ele>195.284912</ele>
        <time>2011-04-05T14:28:21Z</time>
      </trkpt>
      <trkpt lat="47.08538" lon="5.48657">
        <ele>194.32373</ele>
        <time>2011-04-05T14:28:30Z</time>
      </trkpt>
      <trkpt lat="47.08585" lon="5.48744">
        <ele>194.32373</ele>
        <time>2011-04-05T14:28:45Z</time>
      </trkpt>
      <trkpt lat="47.08637" lon="5.48854">
        <ele>194.804321</ele>
        <time>2011-04-05T14:29:05Z</time>
      </trkpt>
      <trkpt lat="47.08646" lon="5.48879">
        <ele>194.32373</ele>
        <time>2011-04-05T14:29:09Z</time>
      </trkpt>
      <trkpt lat="47.08686" lon="5.48973">
        <ele>193.843018</ele>
        <time>2011-04-05T14:29:24Z</time>
      </trkpt>
      <trkpt lat="47.08717" lon="5.49043">
        <ele>193.843018</ele>
        <time>2011-04-05T14:29:36Z</time>
      </trkpt>
      <trkpt lat="47.08726" lon="5.49065">
        <ele>194.32373</ele>
        <time>2011-04-05T14:29:40Z</time>
      </trkpt>
      <trkpt lat="47.08734" lon="5.4909">
        <ele>194.32373</ele>
        <time>2011-04-05T14:29:44Z</time>
      </trkpt>
      <trkpt lat="47.08785" lon="5.4915">
        <ele>194.32373</ele>
        <time>2011-04-05T14:29:59Z</time>
      </trkpt>
      <trkpt lat="47.08838" lon="5.49183">
        <ele>194.804321</ele>
        <time>2011-04-05T14:30:12Z</time>
      </trkpt>
      <trkpt lat="47.08866" lon="5.49233">
        <ele>194.32373</ele>
        <time>2011-04-05T14:30:23Z</time>
      </trkpt>
      <trkpt lat="47.08873" lon="5.49249">
        <ele>194.32373</ele>
        <time>2011-04-05T14:30:26Z</time>
      </trkpt>
      <trkpt lat="47.08869" lon="5.49272">
        <ele>195.765625</ele>
        <time>2011-04-05T14:30:31Z</time>
      </trkpt>
      <trkpt lat="47.08864" lon="5.49275">
        <ele>195.765625</ele>
        <time>2011-04-05T14:30:33Z</time>
      </trkpt>
      <trkpt lat="47.08862" lon="5.49283">
        <ele>195.284912</ele>
        <time>2011-04-05T14:30:37Z</time>
      </trkpt>
      <trkpt lat="47.08865" lon="5.49292">
        <ele>194.804321</ele>
        <time>2011-04-05T14:30:39Z</time>
      </trkpt>
      <trkpt lat="47.08874" lon="5.49322">
        <ele>193.843018</ele>
        <time>2011-04-05T14:30:46Z</time>
      </trkpt>
      <trkpt lat="47.08883" lon="5.49367">
        <ele>195.284912</ele>
        <time>2011-04-05T14:31:01Z</time>
      </trkpt>
      <trkpt lat="47.08891" lon="5.49403">
        <ele>197.688232</ele>
        <time>2011-04-05T14:31:08Z</time>
      </trkpt>
      <trkpt lat="47.08876" lon="5.49428">
        <ele>197.20752</ele>
        <time>2011-04-05T14:31:19Z</time>
      </trkpt>
      <trkpt lat="47.08867" lon="5.4944">
        <ele>197.688232</ele>
        <time>2011-04-05T14:31:24Z</time>
      </trkpt>
      <trkpt lat="47.08755" lon="5.49514">
        <ele>197.688232</ele>
        <time>2011-04-05T14:31:51Z</time>
      </trkpt>
      <trkpt lat="47.08745" lon="5.4952">
        <ele>197.688232</ele>
        <time>2011-04-05T14:31:53Z</time>
      </trkpt>
      <trkpt lat="47.08711" lon="5.49507">
        <ele>197.20752</ele>
        <time>2011-04-05T14:32:00Z</time>
      </trkpt>
      <trkpt lat="47.08699" lon="5.49489">
        <ele>195.765625</ele>
        <time>2011-04-05T14:32:03Z</time>
      </trkpt>
      <trkpt lat="47.0865" lon="5.49485">
        <ele>194.32373</ele>
        <time>2011-04-05T14:32:12Z</time>
      </trkpt>
      <trkpt lat="47.08572" lon="5.49523">
        <ele>192.881714</ele>
        <time>2011-04-05T14:32:26Z</time>
      </trkpt>
      <trkpt lat="47.08557" lon="5.49531">
        <ele>192.881714</ele>
        <time>2011-04-05T14:32:29Z</time>
      </trkpt>
      <trkpt lat="47.08535" lon="5.49526">
        <ele>192.881714</ele>
        <time>2011-04-05T14:32:34Z</time>
      </trkpt>
      <trkpt lat="47.08523" lon="5.49514">
        <ele>193.362305</ele>
        <time>2011-04-05T14:32:37Z</time>
      </trkpt>
      <trkpt lat="47.08476" lon="5.49473">
        <ele>193.362305</ele>
        <time>2011-04-05T14:32:48Z</time>
      </trkpt>
      <trkpt lat="47.08446" lon="5.49454">
        <ele>192.401123</ele>
        <time>2011-04-05T14:32:54Z</time>
      </trkpt>
      <trkpt lat="47.08404" lon="5.49407">
        <ele>192.881714</ele>
        <time>2011-04-05T14:33:04Z</time>
      </trkpt>
      <trkpt lat="47.08327" lon="5.49333">
        <ele>192.881714</ele>
        <time>2011-04-05T14:33:22Z</time>
      </trkpt>
      <trkpt lat="47.0828" lon="5.49289">
        <ele>192.401123</ele>
        <time>2011-04-05T14:33:36Z</time>
      </trkpt>
      <trkpt lat="47.08274" lon="5.49285">
        <ele>192.881714</ele>
        <time>2011-04-05T14:33:40Z</time>
      </trkpt>
      <trkpt lat="47.08273" lon="5.49282">
        <ele>193.362305</ele>
        <time>2011-04-05T14:33:42Z</time>
      </trkpt>
      <trkpt lat="47.08265" lon="5.49286">
        <ele>193.362305</ele>
        <time>2011-04-05T14:33:48Z</time>
      </trkpt>
      <trkpt lat="47.08238" lon="5.4935">
        <ele>193.362305</ele>
        <time>2011-04-05T14:34:03Z</time>
      </trkpt>
      <trkpt lat="47.08178" lon="5.49401">
        <ele>193.362305</ele>
        <time>2011-04-05T14:34:18Z</time>
      </trkpt>
      <trkpt lat="47.08128" lon="5.49407">
        <ele>193.362305</ele>
        <time>2011-04-05T14:34:28Z</time>
      </trkpt>
      <trkpt lat="47.08107" lon="5.4942">
        <ele>193.843018</ele>
        <time>2011-04-05T14:34:33Z</time>
      </trkpt>
      <trkpt lat="47.08078" lon="5.49458">
        <ele>193.362305</ele>
        <time>2011-04-05T14:34:41Z</time>
      </trkpt>
      <trkpt lat="47.08034" lon="5.49478">
        <ele>192.881714</ele>
        <time>2011-04-05T14:34:50Z</time>
      </trkpt>
      <trkpt lat="47.07988" lon="5.49463">
        <ele>193.362305</ele>
        <time>2011-04-05T14:34:59Z</time>
      </trkpt>
      <trkpt lat="47.07902" lon="5.49428">
        <ele>193.362305</ele>
        <time>2011-04-05T14:35:16Z</time>
      </trkpt>
      <trkpt lat="47.07768" lon="5.49365">
        <ele>194.32373</ele>
        <time>2011-04-05T14:35:43Z</time>
      </trkpt>
      <trkpt lat="47.07749" lon="5.49378">
        <ele>194.804321</ele>
        <time>2011-04-05T14:35:48Z</time>
      </trkpt>
      <trkpt lat="47.07736" lon="5.49421">
        <ele>196.246338</ele>
        <time>2011-04-05T14:35:56Z</time>
      </trkpt>
      <trkpt lat="47.07708" lon="5.49487">
        <ele>198.168945</ele>
        <time>2011-04-05T14:36:09Z</time>
      </trkpt>
      <trkpt lat="47.07704" lon="5.49498">
        <ele>198.649536</ele>
        <time>2011-04-05T14:36:11Z</time>
      </trkpt>
      <trkpt lat="47.07698" lon="5.49507">
        <ele>199.130127</ele>
        <time>2011-04-05T14:36:14Z</time>
      </trkpt>
      <trkpt lat="47.07662" lon="5.49588">
        <ele>201.533569</ele>
        <time>2011-04-05T14:36:33Z</time>
      </trkpt>
      <trkpt lat="47.07655" lon="5.49595">
        <ele>201.052856</ele>
        <time>2011-04-05T14:36:45Z</time>
      </trkpt>
      <trkpt lat="47.07654" lon="5.49595">
        <ele>200.572266</ele>
        <time>2011-04-05T14:36:56Z</time>
      </trkpt>
      <trkpt lat="47.07622" lon="5.49577">
        <ele>201.533569</ele>
        <time>2011-04-05T14:37:09Z</time>
      </trkpt>
      <trkpt lat="47.0758" lon="5.49539">
        <ele>203.93689</ele>
        <time>2011-04-05T14:37:23Z</time>
      </trkpt>
      <trkpt lat="47.0752" lon="5.49492">
        <ele>203.93689</ele>
        <time>2011-04-05T14:37:39Z</time>
      </trkpt>
      <trkpt lat="47.07464" lon="5.49457">
        <ele>202.494873</ele>
        <time>2011-04-05T14:37:50Z</time>
      </trkpt>
      <trkpt lat="47.07453" lon="5.49436">
        <ele>202.014282</ele>
        <time>2011-04-05T14:37:54Z</time>
      </trkpt>
      <trkpt lat="47.07449" lon="5.49422">
        <ele>201.533569</ele>
        <time>2011-04-05T14:37:56Z</time>
      </trkpt>
      <trkpt lat="47.07418" lon="5.49416">
        <ele>202.494873</ele>
        <time>2011-04-05T14:38:04Z</time>
      </trkpt>
      <trkpt lat="47.07422" lon="5.4946">
        <ele>202.975464</ele>
        <time>2011-04-05T14:38:12Z</time>
      </trkpt>
      <trkpt lat="47.07425" lon="5.49462">
        <ele>202.494873</ele>
        <time>2011-04-05T14:38:13Z</time>
      </trkpt>
      <trkpt lat="47.07432" lon="5.49467">
        <ele>202.014282</ele>
        <time>2011-04-05T14:38:15Z</time>
      </trkpt>
      <trkpt lat="47.07432" lon="5.49488">
        <ele>202.975464</ele>
        <time>2011-04-05T14:38:20Z</time>
      </trkpt>
      <trkpt lat="47.07424" lon="5.49507">
        <ele>203.93689</ele>
        <time>2011-04-05T14:38:26Z</time>
      </trkpt>
      <trkpt lat="47.07426" lon="5.49513">
        <ele>203.93689</ele>
        <time>2011-04-05T14:38:36Z</time>
      </trkpt>
      <trkpt lat="47.07426" lon="5.49513">
        <ele>203.93689</ele>
        <time>2011-04-05T14:39:53Z</time>
      </trkpt>
      <trkpt lat="47.07427" lon="5.49513">
        <ele>203.456177</ele>
        <time>2011-04-05T14:40:27Z</time>
      </trkpt>
      <trkpt lat="47.07429" lon="5.49512">
        <ele>203.456177</ele>
        <time>2011-04-05T14:41:02Z</time>
      </trkpt>
      <trkpt lat="47.07429" lon="5.49511">
        <ele>202.975464</ele>
        <time>2011-04-05T14:42:05Z</time>
      </trkpt>
      <trkpt lat="47.07429" lon="5.49512">
        <ele>203.456177</ele>
        <time>2011-04-05T14:42:27Z</time>
      </trkpt>
      <trkpt lat="47.07429" lon="5.49513">
        <ele>203.456177</ele>
        <time>2011-04-05T14:43:01Z</time>
      </trkpt>
      <trkpt lat="47.07433" lon="5.49514">
        <ele>203.93689</ele>
        <time>2011-04-05T14:43:16Z</time>
      </trkpt>
      <trkpt lat="47.07433" lon="5.49513">
        <ele>203.93689</ele>
        <time>2011-04-05T14:43:22Z</time>
      </trkpt>
    </trkseg>
  </trk>
</gpx>